<?xml version="1.0" encoding="UTF-8" standalone="no" ?>
<gpx xmlns="http://www.topografix.com/GPX/1/1" xmlns:xsi="http://www.w3.org/2001/XMLSchema-instance" xsi:schemaLocation="http://www.topografix.com/GPX/1/1 http://www.topografix.com/GPX/1/1/gpx.xsd" version="1.1" creator="VisuGPX - https://www.visugpx.com">
  <metadata>
    <name>Rando du malpassant</name>
    <desc><![CDATA[rando de 2011]]></desc>
  </metadata>
  <trk>
    <name><![CDATA[ACTIVE LOG]]></name>
    <trkseg>
      <trkpt lat="45.63766" lon="5.92974">
        <ele>302.471924</ele>
        <time>2011-05-22T06:08:55Z</time>
      </trkpt>
      <trkpt lat="45.63781" lon="5.92966">
        <ele>301.991333</ele>
        <time>2011-05-22T06:09:29Z</time>
      </trkpt>
      <trkpt lat="45.63802" lon="5.92968">
        <ele>302.471924</ele>
        <time>2011-05-22T06:09:43Z</time>
      </trkpt>
      <trkpt lat="45.63852" lon="5.92942">
        <ele>302.952515</ele>
        <time>2011-05-22T06:10:04Z</time>
      </trkpt>
      <trkpt lat="45.63884" lon="5.92933">
        <ele>304.394653</ele>
        <time>2011-05-22T06:10:18Z</time>
      </trkpt>
      <trkpt lat="45.63884" lon="5.92929">
        <ele>303.91394</ele>
        <time>2011-05-22T06:10:20Z</time>
      </trkpt>
      <trkpt lat="45.6388" lon="5.92923">
        <ele>302.952515</ele>
        <time>2011-05-22T06:10:24Z</time>
      </trkpt>
      <trkpt lat="45.63839" lon="5.92886">
        <ele>299.1073</ele>
        <time>2011-05-22T06:10:40Z</time>
      </trkpt>
      <trkpt lat="45.6383" lon="5.92865">
        <ele>298.626709</ele>
        <time>2011-05-22T06:10:44Z</time>
      </trkpt>
      <trkpt lat="45.63807" lon="5.92781">
        <ele>297.665405</ele>
        <time>2011-05-22T06:11:01Z</time>
      </trkpt>
      <trkpt lat="45.6377" lon="5.92712">
        <ele>295.261963</ele>
        <time>2011-05-22T06:11:16Z</time>
      </trkpt>
      <trkpt lat="45.63742" lon="5.92631">
        <ele>291.897461</ele>
        <time>2011-05-22T06:11:31Z</time>
      </trkpt>
      <trkpt lat="45.63701" lon="5.92562">
        <ele>289.494141</ele>
        <time>2011-05-22T06:11:47Z</time>
      </trkpt>
      <trkpt lat="45.6362" lon="5.92489">
        <ele>289.494141</ele>
        <time>2011-05-22T06:12:08Z</time>
      </trkpt>
      <trkpt lat="45.63577" lon="5.92442">
        <ele>287.571411</ele>
        <time>2011-05-22T06:12:20Z</time>
      </trkpt>
      <trkpt lat="45.63566" lon="5.9238">
        <ele>285.648804</ele>
        <time>2011-05-22T06:12:28Z</time>
      </trkpt>
      <trkpt lat="45.63549" lon="5.92358">
        <ele>285.648804</ele>
        <time>2011-05-22T06:12:33Z</time>
      </trkpt>
      <trkpt lat="45.63483" lon="5.92326">
        <ele>281.803589</ele>
        <time>2011-05-22T06:12:47Z</time>
      </trkpt>
      <trkpt lat="45.63474" lon="5.92296">
        <ele>282.284302</ele>
        <time>2011-05-22T06:12:53Z</time>
      </trkpt>
      <trkpt lat="45.6348" lon="5.92275">
        <ele>283.726196</ele>
        <time>2011-05-22T06:12:57Z</time>
      </trkpt>
      <trkpt lat="45.6347" lon="5.92277">
        <ele>285.168213</ele>
        <time>2011-05-22T06:13:03Z</time>
      </trkpt>
      <trkpt lat="45.63444" lon="5.92339">
        <ele>284.687622</ele>
        <time>2011-05-22T06:13:17Z</time>
      </trkpt>
      <trkpt lat="45.63365" lon="5.9244">
        <ele>283.726196</ele>
        <time>2011-05-22T06:13:36Z</time>
      </trkpt>
      <trkpt lat="45.63328" lon="5.9247">
        <ele>280.842407</ele>
        <time>2011-05-22T06:13:44Z</time>
      </trkpt>
      <trkpt lat="45.633" lon="5.92472">
        <ele>279.880859</ele>
        <time>2011-05-22T06:13:49Z</time>
      </trkpt>
      <trkpt lat="45.63199" lon="5.92498">
        <ele>280.842407</ele>
        <time>2011-05-22T06:14:08Z</time>
      </trkpt>
      <trkpt lat="45.63189" lon="5.92476">
        <ele>278.438965</ele>
        <time>2011-05-22T06:14:13Z</time>
      </trkpt>
      <trkpt lat="45.63184" lon="5.92451">
        <ele>277.477661</ele>
        <time>2011-05-22T06:14:17Z</time>
      </trkpt>
      <trkpt lat="45.63182" lon="5.92436">
        <ele>276.99707</ele>
        <time>2011-05-22T06:14:19Z</time>
      </trkpt>
      <trkpt lat="45.63182" lon="5.92397">
        <ele>276.99707</ele>
        <time>2011-05-22T06:14:24Z</time>
      </trkpt>
      <trkpt lat="45.63167" lon="5.92384">
        <ele>276.516357</ele>
        <time>2011-05-22T06:14:28Z</time>
      </trkpt>
      <trkpt lat="45.6309" lon="5.92386">
        <ele>274.113037</ele>
        <time>2011-05-22T06:14:44Z</time>
      </trkpt>
      <trkpt lat="45.63056" lon="5.92384">
        <ele>274.113037</ele>
        <time>2011-05-22T06:14:51Z</time>
      </trkpt>
      <trkpt lat="45.62953" lon="5.92341">
        <ele>274.59375</ele>
        <time>2011-05-22T06:15:12Z</time>
      </trkpt>
      <trkpt lat="45.62903" lon="5.92315">
        <ele>275.074463</ele>
        <time>2011-05-22T06:15:25Z</time>
      </trkpt>
      <trkpt lat="45.62832" lon="5.92328">
        <ele>275.074463</ele>
        <time>2011-05-22T06:15:44Z</time>
      </trkpt>
      <trkpt lat="45.62727" lon="5.92365">
        <ele>273.151855</ele>
        <time>2011-05-22T06:16:07Z</time>
      </trkpt>
      <trkpt lat="45.62656" lon="5.92395">
        <ele>271.709717</ele>
        <time>2011-05-22T06:16:24Z</time>
      </trkpt>
      <trkpt lat="45.62588" lon="5.92423">
        <ele>274.59375</ele>
        <time>2011-05-22T06:16:42Z</time>
      </trkpt>
      <trkpt lat="45.62504" lon="5.92455">
        <ele>273.151855</ele>
        <time>2011-05-22T06:17:04Z</time>
      </trkpt>
      <trkpt lat="45.62416" lon="5.92483">
        <ele>272.19043</ele>
        <time>2011-05-22T06:17:27Z</time>
      </trkpt>
      <trkpt lat="45.62315" lon="5.92519">
        <ele>269.787109</ele>
        <time>2011-05-22T06:17:51Z</time>
      </trkpt>
      <trkpt lat="45.62249" lon="5.92543">
        <ele>270.2677</ele>
        <time>2011-05-22T06:18:09Z</time>
      </trkpt>
      <trkpt lat="45.62154" lon="5.92569">
        <ele>271.229126</ele>
        <time>2011-05-22T06:18:34Z</time>
      </trkpt>
      <trkpt lat="45.62146" lon="5.92524">
        <ele>271.709717</ele>
        <time>2011-05-22T06:18:45Z</time>
      </trkpt>
      <trkpt lat="45.62141" lon="5.92393">
        <ele>272.671143</ele>
        <time>2011-05-22T06:19:08Z</time>
      </trkpt>
      <trkpt lat="45.62135" lon="5.92283">
        <ele>275.074463</ele>
        <time>2011-05-22T06:19:28Z</time>
      </trkpt>
      <trkpt lat="45.62129" lon="5.922">
        <ele>275.074463</ele>
        <time>2011-05-22T06:19:43Z</time>
      </trkpt>
      <trkpt lat="45.62109" lon="5.92189">
        <ele>275.555054</ele>
        <time>2011-05-22T06:19:50Z</time>
      </trkpt>
      <trkpt lat="45.62045" lon="5.92172">
        <ele>276.035645</ele>
        <time>2011-05-22T06:20:05Z</time>
      </trkpt>
      <trkpt lat="45.62038" lon="5.92167">
        <ele>276.516357</ele>
        <time>2011-05-22T06:20:07Z</time>
      </trkpt>
      <trkpt lat="45.6203" lon="5.92099">
        <ele>276.516357</ele>
        <time>2011-05-22T06:20:20Z</time>
      </trkpt>
      <trkpt lat="45.62026" lon="5.92062">
        <ele>276.99707</ele>
        <time>2011-05-22T06:20:28Z</time>
      </trkpt>
      <trkpt lat="45.62028" lon="5.92017">
        <ele>279.880859</ele>
        <time>2011-05-22T06:20:40Z</time>
      </trkpt>
      <trkpt lat="45.62079" lon="5.92004">
        <ele>282.765015</ele>
        <time>2011-05-22T06:20:54Z</time>
      </trkpt>
      <trkpt lat="45.62167" lon="5.91987">
        <ele>285.168213</ele>
        <time>2011-05-22T06:21:14Z</time>
      </trkpt>
      <trkpt lat="45.62204" lon="5.91951">
        <ele>289.01355</ele>
        <time>2011-05-22T06:21:27Z</time>
      </trkpt>
      <trkpt lat="45.6221" lon="5.91888">
        <ele>293.339355</ele>
        <time>2011-05-22T06:21:39Z</time>
      </trkpt>
      <trkpt lat="45.62242" lon="5.91865">
        <ele>295.261963</ele>
        <time>2011-05-22T06:21:50Z</time>
      </trkpt>
      <trkpt lat="45.62277" lon="5.91848">
        <ele>297.665405</ele>
        <time>2011-05-22T06:22:00Z</time>
      </trkpt>
      <trkpt lat="45.62315" lon="5.91809">
        <ele>301.029907</ele>
        <time>2011-05-22T06:22:14Z</time>
      </trkpt>
      <trkpt lat="45.6238" lon="5.91785">
        <ele>305.83667</ele>
        <time>2011-05-22T06:22:33Z</time>
      </trkpt>
      <trkpt lat="45.62433" lon="5.91766">
        <ele>310.643066</ele>
        <time>2011-05-22T06:22:54Z</time>
      </trkpt>
      <trkpt lat="45.62487" lon="5.9177">
        <ele>314.007813</ele>
        <time>2011-05-22T06:23:12Z</time>
      </trkpt>
      <trkpt lat="45.62553" lon="5.91783">
        <ele>318.333618</ele>
        <time>2011-05-22T06:23:34Z</time>
      </trkpt>
      <trkpt lat="45.62629" lon="5.91807">
        <ele>319.775635</ele>
        <time>2011-05-22T06:23:55Z</time>
      </trkpt>
      <trkpt lat="45.6265" lon="5.91805">
        <ele>319.775635</ele>
        <time>2011-05-22T06:24:01Z</time>
      </trkpt>
      <trkpt lat="45.62738" lon="5.91785">
        <ele>316.411011</ele>
        <time>2011-05-22T06:24:18Z</time>
      </trkpt>
      <trkpt lat="45.62828" lon="5.91775">
        <ele>306.797852</ele>
        <time>2011-05-22T06:24:27Z</time>
      </trkpt>
      <trkpt lat="45.62869" lon="5.91803">
        <ele>303.91394</ele>
        <time>2011-05-22T06:24:31Z</time>
      </trkpt>
      <trkpt lat="45.62886" lon="5.9182">
        <ele>303.91394</ele>
        <time>2011-05-22T06:24:33Z</time>
      </trkpt>
      <trkpt lat="45.62931" lon="5.91837">
        <ele>302.471924</ele>
        <time>2011-05-22T06:24:38Z</time>
      </trkpt>
      <trkpt lat="45.63051" lon="5.91841">
        <ele>286.610229</ele>
        <time>2011-05-22T06:24:48Z</time>
      </trkpt>
      <trkpt lat="45.63105" lon="5.91846">
        <ele>283.726196</ele>
        <time>2011-05-22T06:24:52Z</time>
      </trkpt>
      <trkpt lat="45.63253" lon="5.9188">
        <ele>282.284302</ele>
        <time>2011-05-22T06:25:04Z</time>
      </trkpt>
      <trkpt lat="45.63277" lon="5.91884">
        <ele>282.284302</ele>
        <time>2011-05-22T06:25:06Z</time>
      </trkpt>
      <trkpt lat="45.63277" lon="5.91822">
        <ele>283.245605</ele>
        <time>2011-05-22T06:25:11Z</time>
      </trkpt>
      <trkpt lat="45.63369" lon="5.91753">
        <ele>280.842407</ele>
        <time>2011-05-22T06:25:26Z</time>
      </trkpt>
      <trkpt lat="45.6336" lon="5.9171">
        <ele>278.438965</ele>
        <time>2011-05-22T06:25:34Z</time>
      </trkpt>
      <trkpt lat="45.63304" lon="5.91564">
        <ele>276.99707</ele>
        <time>2011-05-22T06:25:54Z</time>
      </trkpt>
      <trkpt lat="45.63244" lon="5.91431">
        <ele>279.880859</ele>
        <time>2011-05-22T06:26:17Z</time>
      </trkpt>
      <trkpt lat="45.63223" lon="5.91373">
        <ele>283.726196</ele>
        <time>2011-05-22T06:26:36Z</time>
      </trkpt>
      <trkpt lat="45.63221" lon="5.91369">
        <ele>284.687622</ele>
        <time>2011-05-22T06:26:38Z</time>
      </trkpt>
      <trkpt lat="45.63227" lon="5.91354">
        <ele>288.052246</ele>
        <time>2011-05-22T06:26:44Z</time>
      </trkpt>
      <trkpt lat="45.63262" lon="5.91337">
        <ele>288.052246</ele>
        <time>2011-05-22T06:26:54Z</time>
      </trkpt>
      <trkpt lat="45.63285" lon="5.91343">
        <ele>287.09082</ele>
        <time>2011-05-22T06:26:59Z</time>
      </trkpt>
      <trkpt lat="45.6336" lon="5.91479">
        <ele>282.765015</ele>
        <time>2011-05-22T06:27:13Z</time>
      </trkpt>
      <trkpt lat="45.63392" lon="5.91547">
        <ele>280.361694</ele>
        <time>2011-05-22T06:27:19Z</time>
      </trkpt>
      <trkpt lat="45.63455" lon="5.9165">
        <ele>277.958252</ele>
        <time>2011-05-22T06:27:32Z</time>
      </trkpt>
      <trkpt lat="45.63538" lon="5.91762">
        <ele>277.477661</ele>
        <time>2011-05-22T06:27:51Z</time>
      </trkpt>
      <trkpt lat="45.63616" lon="5.91837">
        <ele>276.035645</ele>
        <time>2011-05-22T06:28:07Z</time>
      </trkpt>
      <trkpt lat="45.63637" lon="5.91854">
        <ele>275.555054</ele>
        <time>2011-05-22T06:28:11Z</time>
      </trkpt>
      <trkpt lat="45.63652" lon="5.91865">
        <ele>275.555054</ele>
        <time>2011-05-22T06:28:14Z</time>
      </trkpt>
      <trkpt lat="45.63665" lon="5.91869">
        <ele>275.555054</ele>
        <time>2011-05-22T06:28:16Z</time>
      </trkpt>
      <trkpt lat="45.63755" lon="5.91919">
        <ele>275.074463</ele>
        <time>2011-05-22T06:28:33Z</time>
      </trkpt>
      <trkpt lat="45.63785" lon="5.91929">
        <ele>274.59375</ele>
        <time>2011-05-22T06:28:38Z</time>
      </trkpt>
      <trkpt lat="45.63802" lon="5.91934">
        <ele>275.074463</ele>
        <time>2011-05-22T06:28:41Z</time>
      </trkpt>
      <trkpt lat="45.63869" lon="5.91961">
        <ele>276.516357</ele>
        <time>2011-05-22T06:28:55Z</time>
      </trkpt>
      <trkpt lat="45.63937" lon="5.91983">
        <ele>279.400269</ele>
        <time>2011-05-22T06:29:12Z</time>
      </trkpt>
      <trkpt lat="45.64004" lon="5.91996">
        <ele>282.284302</ele>
        <time>2011-05-22T06:29:29Z</time>
      </trkpt>
      <trkpt lat="45.64034" lon="5.91998">
        <ele>281.803589</ele>
        <time>2011-05-22T06:29:36Z</time>
      </trkpt>
      <trkpt lat="45.64116" lon="5.91996">
        <ele>279.400269</ele>
        <time>2011-05-22T06:29:53Z</time>
      </trkpt>
      <trkpt lat="45.64186" lon="5.91994">
        <ele>278.919678</ele>
        <time>2011-05-22T06:30:07Z</time>
      </trkpt>
      <trkpt lat="45.64193" lon="5.91991">
        <ele>279.400269</ele>
        <time>2011-05-22T06:30:08Z</time>
      </trkpt>
      <trkpt lat="45.64201" lon="5.91994">
        <ele>278.919678</ele>
        <time>2011-05-22T06:30:10Z</time>
      </trkpt>
      <trkpt lat="45.6421" lon="5.91994">
        <ele>278.919678</ele>
        <time>2011-05-22T06:30:12Z</time>
      </trkpt>
      <trkpt lat="45.64285" lon="5.91983">
        <ele>279.400269</ele>
        <time>2011-05-22T06:30:30Z</time>
      </trkpt>
      <trkpt lat="45.64332" lon="5.91979">
        <ele>278.438965</ele>
        <time>2011-05-22T06:30:42Z</time>
      </trkpt>
      <trkpt lat="45.64435" lon="5.91981">
        <ele>278.919678</ele>
        <time>2011-05-22T06:31:00Z</time>
      </trkpt>
      <trkpt lat="45.64568" lon="5.92">
        <ele>278.438965</ele>
        <time>2011-05-22T06:31:23Z</time>
      </trkpt>
      <trkpt lat="45.64658" lon="5.9203">
        <ele>281.803589</ele>
        <time>2011-05-22T06:31:41Z</time>
      </trkpt>
      <trkpt lat="45.64738" lon="5.92073">
        <ele>285.648804</ele>
        <time>2011-05-22T06:31:59Z</time>
      </trkpt>
      <trkpt lat="45.6483" lon="5.92125">
        <ele>289.01355</ele>
        <time>2011-05-22T06:32:21Z</time>
      </trkpt>
      <trkpt lat="45.64834" lon="5.92127">
        <ele>289.01355</ele>
        <time>2011-05-22T06:32:22Z</time>
      </trkpt>
      <trkpt lat="45.64845" lon="5.92127">
        <ele>289.494141</ele>
        <time>2011-05-22T06:32:25Z</time>
      </trkpt>
      <trkpt lat="45.64922" lon="5.92097">
        <ele>284.687622</ele>
        <time>2011-05-22T06:32:38Z</time>
      </trkpt>
      <trkpt lat="45.64933" lon="5.92064">
        <ele>285.168213</ele>
        <time>2011-05-22T06:32:44Z</time>
      </trkpt>
      <trkpt lat="45.64948" lon="5.91863">
        <ele>284.206909</ele>
        <time>2011-05-22T06:33:07Z</time>
      </trkpt>
      <trkpt lat="45.64955" lon="5.91788">
        <ele>282.284302</ele>
        <time>2011-05-22T06:33:17Z</time>
      </trkpt>
      <trkpt lat="45.64972" lon="5.91775">
        <ele>283.245605</ele>
        <time>2011-05-22T06:33:22Z</time>
      </trkpt>
      <trkpt lat="45.65075" lon="5.91755">
        <ele>281.803589</ele>
        <time>2011-05-22T06:33:43Z</time>
      </trkpt>
      <trkpt lat="45.65094" lon="5.91745">
        <ele>281.322998</ele>
        <time>2011-05-22T06:33:47Z</time>
      </trkpt>
      <trkpt lat="45.65111" lon="5.91749">
        <ele>280.361694</ele>
        <time>2011-05-22T06:33:51Z</time>
      </trkpt>
      <trkpt lat="45.65152" lon="5.91764">
        <ele>280.361694</ele>
        <time>2011-05-22T06:34:00Z</time>
      </trkpt>
      <trkpt lat="45.65186" lon="5.9176">
        <ele>280.842407</ele>
        <time>2011-05-22T06:34:06Z</time>
      </trkpt>
      <trkpt lat="45.65201" lon="5.9177">
        <ele>281.803589</ele>
        <time>2011-05-22T06:34:10Z</time>
      </trkpt>
      <trkpt lat="45.65238" lon="5.91916">
        <ele>282.765015</ele>
        <time>2011-05-22T06:34:33Z</time>
      </trkpt>
      <trkpt lat="45.65255" lon="5.9203">
        <ele>284.687622</ele>
        <time>2011-05-22T06:34:51Z</time>
      </trkpt>
      <trkpt lat="45.65279" lon="5.92094">
        <ele>285.168213</ele>
        <time>2011-05-22T06:35:03Z</time>
      </trkpt>
      <trkpt lat="45.65321" lon="5.92161">
        <ele>286.129517</ele>
        <time>2011-05-22T06:35:16Z</time>
      </trkpt>
      <trkpt lat="45.65321" lon="5.92185">
        <ele>286.610229</ele>
        <time>2011-05-22T06:35:21Z</time>
      </trkpt>
      <trkpt lat="45.65287" lon="5.92279">
        <ele>285.168213</ele>
        <time>2011-05-22T06:35:40Z</time>
      </trkpt>
      <trkpt lat="45.65281" lon="5.9229">
        <ele>285.168213</ele>
        <time>2011-05-22T06:35:42Z</time>
      </trkpt>
      <trkpt lat="45.65283" lon="5.92315">
        <ele>283.726196</ele>
        <time>2011-05-22T06:35:47Z</time>
      </trkpt>
      <trkpt lat="45.65313" lon="5.92328">
        <ele>283.726196</ele>
        <time>2011-05-22T06:35:55Z</time>
      </trkpt>
      <trkpt lat="45.65345" lon="5.92307">
        <ele>286.610229</ele>
        <time>2011-05-22T06:36:04Z</time>
      </trkpt>
      <trkpt lat="45.65352" lon="5.923">
        <ele>287.09082</ele>
        <time>2011-05-22T06:36:06Z</time>
      </trkpt>
      <trkpt lat="45.65367" lon="5.92307">
        <ele>286.610229</ele>
        <time>2011-05-22T06:36:10Z</time>
      </trkpt>
      <trkpt lat="45.65379" lon="5.92346">
        <ele>287.09082</ele>
        <time>2011-05-22T06:36:17Z</time>
      </trkpt>
      <trkpt lat="45.65394" lon="5.92442">
        <ele>287.571411</ele>
        <time>2011-05-22T06:36:35Z</time>
      </trkpt>
      <trkpt lat="45.65431" lon="5.92534">
        <ele>288.532959</ele>
        <time>2011-05-22T06:36:58Z</time>
      </trkpt>
      <trkpt lat="45.65459" lon="5.92579">
        <ele>290.455566</ele>
        <time>2011-05-22T06:37:11Z</time>
      </trkpt>
      <trkpt lat="45.65519" lon="5.92603">
        <ele>291.416748</ele>
        <time>2011-05-22T06:37:27Z</time>
      </trkpt>
      <trkpt lat="45.65575" lon="5.92618">
        <ele>300.068726</ele>
        <time>2011-05-22T06:37:45Z</time>
      </trkpt>
      <trkpt lat="45.65633" lon="5.92624">
        <ele>306.317261</ele>
        <time>2011-05-22T06:38:05Z</time>
      </trkpt>
      <trkpt lat="45.65693" lon="5.9262">
        <ele>311.604492</ele>
        <time>2011-05-22T06:38:25Z</time>
      </trkpt>
      <trkpt lat="45.65768" lon="5.92601">
        <ele>314.007813</ele>
        <time>2011-05-22T06:38:47Z</time>
      </trkpt>
      <trkpt lat="45.65834" lon="5.9259">
        <ele>316.891724</ele>
        <time>2011-05-22T06:39:08Z</time>
      </trkpt>
      <trkpt lat="45.65905" lon="5.92584">
        <ele>316.891724</ele>
        <time>2011-05-22T06:39:27Z</time>
      </trkpt>
      <trkpt lat="45.65907" lon="5.92584">
        <ele>317.372437</ele>
        <time>2011-05-22T06:39:28Z</time>
      </trkpt>
      <trkpt lat="45.65912" lon="5.92601">
        <ele>317.853027</ele>
        <time>2011-05-22T06:39:33Z</time>
      </trkpt>
      <trkpt lat="45.65892" lon="5.92672">
        <ele>319.295044</ele>
        <time>2011-05-22T06:39:51Z</time>
      </trkpt>
      <trkpt lat="45.65869" lon="5.9271">
        <ele>323.140381</ele>
        <time>2011-05-22T06:40:07Z</time>
      </trkpt>
      <trkpt lat="45.65854" lon="5.92721">
        <ele>323.620972</ele>
        <time>2011-05-22T06:40:19Z</time>
      </trkpt>
      <trkpt lat="45.65854" lon="5.92723">
        <ele>324.101563</ele>
        <time>2011-05-22T06:40:35Z</time>
      </trkpt>
      <trkpt lat="45.65858" lon="5.92719">
        <ele>326.504883</ele>
        <time>2011-05-22T06:44:11Z</time>
      </trkpt>
      <trkpt lat="45.6586" lon="5.92719">
        <ele>327.466187</ele>
        <time>2011-05-22T06:44:20Z</time>
      </trkpt>
      <trkpt lat="45.65897" lon="5.9271">
        <ele>325.543579</ele>
        <time>2011-05-22T06:44:37Z</time>
      </trkpt>
      <trkpt lat="45.65963" lon="5.92682">
        <ele>327.946777</ele>
        <time>2011-05-22T06:44:54Z</time>
      </trkpt>
      <trkpt lat="45.66066" lon="5.9265">
        <ele>328.427612</ele>
        <time>2011-05-22T06:45:14Z</time>
      </trkpt>
      <trkpt lat="45.66173" lon="5.92618">
        <ele>328.908325</ele>
        <time>2011-05-22T06:45:33Z</time>
      </trkpt>
      <trkpt lat="45.66285" lon="5.92616">
        <ele>325.543579</ele>
        <time>2011-05-22T06:45:46Z</time>
      </trkpt>
      <trkpt lat="45.66336" lon="5.92618">
        <ele>323.140381</ele>
        <time>2011-05-22T06:45:55Z</time>
      </trkpt>
      <trkpt lat="45.66394" lon="5.92642">
        <ele>320.256348</ele>
        <time>2011-05-22T06:46:10Z</time>
      </trkpt>
      <trkpt lat="45.66487" lon="5.92663">
        <ele>322.659668</ele>
        <time>2011-05-22T06:46:33Z</time>
      </trkpt>
      <trkpt lat="45.66568" lon="5.92682">
        <ele>325.062988</ele>
        <time>2011-05-22T06:46:56Z</time>
      </trkpt>
      <trkpt lat="45.66583" lon="5.92682">
        <ele>325.543579</ele>
        <time>2011-05-22T06:47:01Z</time>
      </trkpt>
      <trkpt lat="45.66587" lon="5.92665">
        <ele>325.543579</ele>
        <time>2011-05-22T06:47:06Z</time>
      </trkpt>
      <trkpt lat="45.6657" lon="5.92644">
        <ele>326.02417</ele>
        <time>2011-05-22T06:47:13Z</time>
      </trkpt>
      <trkpt lat="45.66525" lon="5.92616">
        <ele>326.02417</ele>
        <time>2011-05-22T06:47:24Z</time>
      </trkpt>
      <trkpt lat="45.66457" lon="5.92599">
        <ele>327.466187</ele>
        <time>2011-05-22T06:47:41Z</time>
      </trkpt>
      <trkpt lat="45.66448" lon="5.92597">
        <ele>327.466187</ele>
        <time>2011-05-22T06:47:43Z</time>
      </trkpt>
      <trkpt lat="45.6645" lon="5.92575">
        <ele>328.427612</ele>
        <time>2011-05-22T06:47:49Z</time>
      </trkpt>
      <trkpt lat="45.66542" lon="5.92558">
        <ele>331.792114</ele>
        <time>2011-05-22T06:48:11Z</time>
      </trkpt>
      <trkpt lat="45.66641" lon="5.92545">
        <ele>333.714722</ele>
        <time>2011-05-22T06:48:33Z</time>
      </trkpt>
      <trkpt lat="45.66733" lon="5.92547">
        <ele>335.637329</ele>
        <time>2011-05-22T06:48:54Z</time>
      </trkpt>
      <trkpt lat="45.66761" lon="5.92573">
        <ele>335.156738</ele>
        <time>2011-05-22T06:49:02Z</time>
      </trkpt>
      <trkpt lat="45.6677" lon="5.92573">
        <ele>335.156738</ele>
        <time>2011-05-22T06:49:04Z</time>
      </trkpt>
      <trkpt lat="45.66778" lon="5.92573">
        <ele>336.598877</ele>
        <time>2011-05-22T06:49:06Z</time>
      </trkpt>
      <trkpt lat="45.66813" lon="5.92575">
        <ele>337.560059</ele>
        <time>2011-05-22T06:49:14Z</time>
      </trkpt>
      <trkpt lat="45.66869" lon="5.92588">
        <ele>339.482666</ele>
        <time>2011-05-22T06:49:30Z</time>
      </trkpt>
      <trkpt lat="45.66927" lon="5.92603">
        <ele>342.366699</ele>
        <time>2011-05-22T06:49:46Z</time>
      </trkpt>
      <trkpt lat="45.66989" lon="5.92629">
        <ele>345.25061</ele>
        <time>2011-05-22T06:50:04Z</time>
      </trkpt>
      <trkpt lat="45.67053" lon="5.92661">
        <ele>349.095825</ele>
        <time>2011-05-22T06:50:24Z</time>
      </trkpt>
      <trkpt lat="45.67113" lon="5.92708">
        <ele>353.421875</ele>
        <time>2011-05-22T06:50:42Z</time>
      </trkpt>
      <trkpt lat="45.6715" lon="5.92738">
        <ele>356.305786</ele>
        <time>2011-05-22T06:50:53Z</time>
      </trkpt>
      <trkpt lat="45.67193" lon="5.92777">
        <ele>357.747803</ele>
        <time>2011-05-22T06:51:07Z</time>
      </trkpt>
      <trkpt lat="45.67201" lon="5.92852">
        <ele>357.747803</ele>
        <time>2011-05-22T06:51:23Z</time>
      </trkpt>
      <trkpt lat="45.67205" lon="5.92869">
        <ele>357.26709</ele>
        <time>2011-05-22T06:51:27Z</time>
      </trkpt>
      <trkpt lat="45.67259" lon="5.92925">
        <ele>356.305786</ele>
        <time>2011-05-22T06:51:51Z</time>
      </trkpt>
      <trkpt lat="45.67308" lon="5.92987">
        <ele>360.631714</ele>
        <time>2011-05-22T06:52:14Z</time>
      </trkpt>
      <trkpt lat="45.67349" lon="5.93026">
        <ele>368.322266</ele>
        <time>2011-05-22T06:52:34Z</time>
      </trkpt>
      <trkpt lat="45.67364" lon="5.93069">
        <ele>369.283691</ele>
        <time>2011-05-22T06:52:52Z</time>
      </trkpt>
      <trkpt lat="45.67373" lon="5.93142">
        <ele>372.648193</ele>
        <time>2011-05-22T06:53:14Z</time>
      </trkpt>
      <trkpt lat="45.67399" lon="5.93219">
        <ele>376.49353</ele>
        <time>2011-05-22T06:53:37Z</time>
      </trkpt>
      <trkpt lat="45.67442" lon="5.93262">
        <ele>383.703247</ele>
        <time>2011-05-22T06:53:59Z</time>
      </trkpt>
      <trkpt lat="45.67465" lon="5.93307">
        <ele>383.222656</ele>
        <time>2011-05-22T06:54:18Z</time>
      </trkpt>
      <trkpt lat="45.67463" lon="5.9336">
        <ele>387.548584</ele>
        <time>2011-05-22T06:54:35Z</time>
      </trkpt>
      <trkpt lat="45.67465" lon="5.93367">
        <ele>387.548584</ele>
        <time>2011-05-22T06:54:37Z</time>
      </trkpt>
      <trkpt lat="45.67472" lon="5.93369">
        <ele>388.51001</ele>
        <time>2011-05-22T06:54:42Z</time>
      </trkpt>
      <trkpt lat="45.67504" lon="5.93354">
        <ele>389.471191</ele>
        <time>2011-05-22T06:54:54Z</time>
      </trkpt>
      <trkpt lat="45.6757" lon="5.93371">
        <ele>389.471191</ele>
        <time>2011-05-22T06:55:11Z</time>
      </trkpt>
      <trkpt lat="45.67639" lon="5.9338">
        <ele>389.951904</ele>
        <time>2011-05-22T06:55:29Z</time>
      </trkpt>
      <trkpt lat="45.67723" lon="5.9338">
        <ele>391.874512</ele>
        <time>2011-05-22T06:55:52Z</time>
      </trkpt>
      <trkpt lat="45.67787" lon="5.93371">
        <ele>394.758545</ele>
        <time>2011-05-22T06:56:10Z</time>
      </trkpt>
      <trkpt lat="45.67858" lon="5.93367">
        <ele>395.239136</ele>
        <time>2011-05-22T06:56:27Z</time>
      </trkpt>
      <trkpt lat="45.67941" lon="5.93367">
        <ele>397.161743</ele>
        <time>2011-05-22T06:56:45Z</time>
      </trkpt>
      <trkpt lat="45.67952" lon="5.93388">
        <ele>398.60376</ele>
        <time>2011-05-22T06:56:51Z</time>
      </trkpt>
      <trkpt lat="45.67984" lon="5.93438">
        <ele>402.449097</ele>
        <time>2011-05-22T06:57:07Z</time>
      </trkpt>
      <trkpt lat="45.68034" lon="5.93451">
        <ele>407.736328</ele>
        <time>2011-05-22T06:57:28Z</time>
      </trkpt>
      <trkpt lat="45.68081" lon="5.93461">
        <ele>411.581665</ele>
        <time>2011-05-22T06:57:47Z</time>
      </trkpt>
      <trkpt lat="45.68132" lon="5.93472">
        <ele>418.310791</ele>
        <time>2011-05-22T06:58:07Z</time>
      </trkpt>
      <trkpt lat="45.6818" lon="5.93483">
        <ele>419.752808</ele>
        <time>2011-05-22T06:58:25Z</time>
      </trkpt>
      <trkpt lat="45.68231" lon="5.93491">
        <ele>419.752808</ele>
        <time>2011-05-22T06:58:39Z</time>
      </trkpt>
      <trkpt lat="45.68255" lon="5.93502">
        <ele>417.349609</ele>
        <time>2011-05-22T06:58:45Z</time>
      </trkpt>
      <trkpt lat="45.68261" lon="5.93547">
        <ele>413.504272</ele>
        <time>2011-05-22T06:58:51Z</time>
      </trkpt>
      <trkpt lat="45.68272" lon="5.93558">
        <ele>412.062256</ele>
        <time>2011-05-22T06:58:55Z</time>
      </trkpt>
      <trkpt lat="45.68278" lon="5.93549">
        <ele>411.100952</ele>
        <time>2011-05-22T06:58:57Z</time>
      </trkpt>
      <trkpt lat="45.68304" lon="5.93515">
        <ele>408.217041</ele>
        <time>2011-05-22T06:59:04Z</time>
      </trkpt>
      <trkpt lat="45.68336" lon="5.93526">
        <ele>404.852295</ele>
        <time>2011-05-22T06:59:10Z</time>
      </trkpt>
      <trkpt lat="45.68343" lon="5.93558">
        <ele>405.333008</ele>
        <time>2011-05-22T06:59:15Z</time>
      </trkpt>
      <trkpt lat="45.68356" lon="5.9356">
        <ele>405.333008</ele>
        <time>2011-05-22T06:59:18Z</time>
      </trkpt>
      <trkpt lat="45.68399" lon="5.93558">
        <ele>408.697632</ele>
        <time>2011-05-22T06:59:33Z</time>
      </trkpt>
      <trkpt lat="45.68416" lon="5.93571">
        <ele>412.542847</ele>
        <time>2011-05-22T06:59:42Z</time>
      </trkpt>
      <trkpt lat="45.68403" lon="5.93609">
        <ele>416.388184</ele>
        <time>2011-05-22T06:59:56Z</time>
      </trkpt>
      <trkpt lat="45.68405" lon="5.93616">
        <ele>416.388184</ele>
        <time>2011-05-22T06:59:58Z</time>
      </trkpt>
      <trkpt lat="45.68414" lon="5.93622">
        <ele>415.907471</ele>
        <time>2011-05-22T07:00:02Z</time>
      </trkpt>
      <trkpt lat="45.68465" lon="5.93637">
        <ele>416.868896</ele>
        <time>2011-05-22T07:00:18Z</time>
      </trkpt>
      <trkpt lat="45.68478" lon="5.93633">
        <ele>416.868896</ele>
        <time>2011-05-22T07:00:21Z</time>
      </trkpt>
      <trkpt lat="45.68517" lon="5.9362">
        <ele>417.8302</ele>
        <time>2011-05-22T07:00:30Z</time>
      </trkpt>
      <trkpt lat="45.68547" lon="5.93618">
        <ele>416.868896</ele>
        <time>2011-05-22T07:00:36Z</time>
      </trkpt>
      <trkpt lat="45.68559" lon="5.93614">
        <ele>415.907471</ele>
        <time>2011-05-22T07:00:38Z</time>
      </trkpt>
      <trkpt lat="45.68635" lon="5.93543">
        <ele>409.178345</ele>
        <time>2011-05-22T07:00:49Z</time>
      </trkpt>
      <trkpt lat="45.68652" lon="5.93517">
        <ele>407.736328</ele>
        <time>2011-05-22T07:00:52Z</time>
      </trkpt>
      <trkpt lat="45.68692" lon="5.93513">
        <ele>407.736328</ele>
        <time>2011-05-22T07:00:59Z</time>
      </trkpt>
      <trkpt lat="45.68733" lon="5.93547">
        <ele>412.542847</ele>
        <time>2011-05-22T07:01:16Z</time>
      </trkpt>
      <trkpt lat="45.68774" lon="5.93549">
        <ele>417.349609</ele>
        <time>2011-05-22T07:01:36Z</time>
      </trkpt>
      <trkpt lat="45.68841" lon="5.93562">
        <ele>420.233398</ele>
        <time>2011-05-22T07:02:00Z</time>
      </trkpt>
      <trkpt lat="45.68909" lon="5.9359">
        <ele>422.636719</ele>
        <time>2011-05-22T07:02:18Z</time>
      </trkpt>
      <trkpt lat="45.68969" lon="5.93603">
        <ele>425.520752</ele>
        <time>2011-05-22T07:02:35Z</time>
      </trkpt>
      <trkpt lat="45.69006" lon="5.93624">
        <ele>426.482056</ele>
        <time>2011-05-22T07:02:49Z</time>
      </trkpt>
      <trkpt lat="45.6907" lon="5.93637">
        <ele>426.962769</ele>
        <time>2011-05-22T07:03:08Z</time>
      </trkpt>
      <trkpt lat="45.69109" lon="5.9368">
        <ele>427.443359</ele>
        <time>2011-05-22T07:03:22Z</time>
      </trkpt>
      <trkpt lat="45.69147" lon="5.93695">
        <ele>428.404663</ele>
        <time>2011-05-22T07:03:33Z</time>
      </trkpt>
      <trkpt lat="45.69199" lon="5.93702">
        <ele>428.885376</ele>
        <time>2011-05-22T07:03:47Z</time>
      </trkpt>
      <trkpt lat="45.69263" lon="5.93695">
        <ele>428.885376</ele>
        <time>2011-05-22T07:04:05Z</time>
      </trkpt>
      <trkpt lat="45.69325" lon="5.937">
        <ele>427.92395</ele>
        <time>2011-05-22T07:04:25Z</time>
      </trkpt>
      <trkpt lat="45.69411" lon="5.93704">
        <ele>427.92395</ele>
        <time>2011-05-22T07:04:49Z</time>
      </trkpt>
      <trkpt lat="45.69431" lon="5.93693">
        <ele>426.962769</ele>
        <time>2011-05-22T07:04:55Z</time>
      </trkpt>
      <trkpt lat="45.69435" lon="5.93669">
        <ele>426.962769</ele>
        <time>2011-05-22T07:04:59Z</time>
      </trkpt>
      <trkpt lat="45.69437" lon="5.93554">
        <ele>426.962769</ele>
        <time>2011-05-22T07:05:14Z</time>
      </trkpt>
      <trkpt lat="45.69454" lon="5.93541">
        <ele>426.962769</ele>
        <time>2011-05-22T07:05:19Z</time>
      </trkpt>
      <trkpt lat="45.69529" lon="5.9353">
        <ele>426.962769</ele>
        <time>2011-05-22T07:05:39Z</time>
      </trkpt>
      <trkpt lat="45.69602" lon="5.93526">
        <ele>424.078735</ele>
        <time>2011-05-22T07:05:55Z</time>
      </trkpt>
      <trkpt lat="45.69695" lon="5.93509">
        <ele>420.233398</ele>
        <time>2011-05-22T07:06:11Z</time>
      </trkpt>
      <trkpt lat="45.69705" lon="5.935">
        <ele>418.791504</ele>
        <time>2011-05-22T07:06:13Z</time>
      </trkpt>
      <trkpt lat="45.6972" lon="5.93509">
        <ele>418.310791</ele>
        <time>2011-05-22T07:06:20Z</time>
      </trkpt>
      <trkpt lat="45.69735" lon="5.93556">
        <ele>421.675415</ele>
        <time>2011-05-22T07:06:39Z</time>
      </trkpt>
      <trkpt lat="45.69733" lon="5.93624">
        <ele>421.675415</ele>
        <time>2011-05-22T07:07:02Z</time>
      </trkpt>
      <trkpt lat="45.69725" lon="5.93704">
        <ele>425.040161</ele>
        <time>2011-05-22T07:07:25Z</time>
      </trkpt>
      <trkpt lat="45.69729" lon="5.9377">
        <ele>423.598022</ele>
        <time>2011-05-22T07:07:45Z</time>
      </trkpt>
      <trkpt lat="45.69742" lon="5.93775">
        <ele>424.078735</ele>
        <time>2011-05-22T07:07:50Z</time>
      </trkpt>
      <trkpt lat="45.69802" lon="5.93764">
        <ele>430.807983</ele>
        <time>2011-05-22T07:08:13Z</time>
      </trkpt>
      <trkpt lat="45.69856" lon="5.9377">
        <ele>435.614502</ele>
        <time>2011-05-22T07:08:34Z</time>
      </trkpt>
      <trkpt lat="45.69905" lon="5.93794">
        <ele>440.901855</ele>
        <time>2011-05-22T07:08:56Z</time>
      </trkpt>
      <trkpt lat="45.69918" lon="5.93837">
        <ele>442.824463</ele>
        <time>2011-05-22T07:09:12Z</time>
      </trkpt>
      <trkpt lat="45.6992" lon="5.93912">
        <ele>445.227661</ele>
        <time>2011-05-22T07:09:34Z</time>
      </trkpt>
      <trkpt lat="45.69909" lon="5.93976">
        <ele>451.476318</ele>
        <time>2011-05-22T07:09:54Z</time>
      </trkpt>
      <trkpt lat="45.69907" lon="5.93989">
        <ele>453.398926</ele>
        <time>2011-05-22T07:09:58Z</time>
      </trkpt>
      <trkpt lat="45.69911" lon="5.94002">
        <ele>453.879639</ele>
        <time>2011-05-22T07:10:04Z</time>
      </trkpt>
      <trkpt lat="45.69922" lon="5.94056">
        <ele>459.647583</ele>
        <time>2011-05-22T07:10:28Z</time>
      </trkpt>
      <trkpt lat="45.6992" lon="5.9409">
        <ele>462.531372</ele>
        <time>2011-05-22T07:10:44Z</time>
      </trkpt>
      <trkpt lat="45.69918" lon="5.94092">
        <ele>462.531372</ele>
        <time>2011-05-22T07:10:45Z</time>
      </trkpt>
      <trkpt lat="45.69916" lon="5.94096">
        <ele>463.012085</ele>
        <time>2011-05-22T07:10:48Z</time>
      </trkpt>
      <trkpt lat="45.69924" lon="5.94107">
        <ele>464.934814</ele>
        <time>2011-05-22T07:10:57Z</time>
      </trkpt>
      <trkpt lat="45.69952" lon="5.94129">
        <ele>465.896118</ele>
        <time>2011-05-22T07:11:12Z</time>
      </trkpt>
      <trkpt lat="45.70004" lon="5.94144">
        <ele>466.857422</ele>
        <time>2011-05-22T07:11:29Z</time>
      </trkpt>
      <trkpt lat="45.70081" lon="5.94154">
        <ele>465.415527</ele>
        <time>2011-05-22T07:11:48Z</time>
      </trkpt>
      <trkpt lat="45.70164" lon="5.9418">
        <ele>464.454102</ele>
        <time>2011-05-22T07:12:06Z</time>
      </trkpt>
      <trkpt lat="45.70252" lon="5.94199">
        <ele>465.896118</ele>
        <time>2011-05-22T07:12:26Z</time>
      </trkpt>
      <trkpt lat="45.70261" lon="5.94202">
        <ele>465.896118</ele>
        <time>2011-05-22T07:12:28Z</time>
      </trkpt>
      <trkpt lat="45.70267" lon="5.9421">
        <ele>465.896118</ele>
        <time>2011-05-22T07:12:30Z</time>
      </trkpt>
      <trkpt lat="45.70272" lon="5.9423">
        <ele>464.934814</ele>
        <time>2011-05-22T07:12:33Z</time>
      </trkpt>
      <trkpt lat="45.70276" lon="5.94249">
        <ele>464.454102</ele>
        <time>2011-05-22T07:12:36Z</time>
      </trkpt>
      <trkpt lat="45.70283" lon="5.94251">
        <ele>463.973389</ele>
        <time>2011-05-22T07:12:38Z</time>
      </trkpt>
      <trkpt lat="45.70295" lon="5.94232">
        <ele>463.012085</ele>
        <time>2011-05-22T07:12:43Z</time>
      </trkpt>
      <trkpt lat="45.70302" lon="5.94221">
        <ele>462.531372</ele>
        <time>2011-05-22T07:12:45Z</time>
      </trkpt>
      <trkpt lat="45.70308" lon="5.94197">
        <ele>462.531372</ele>
        <time>2011-05-22T07:12:49Z</time>
      </trkpt>
      <trkpt lat="45.70347" lon="5.94142">
        <ele>461.089478</ele>
        <time>2011-05-22T07:13:04Z</time>
      </trkpt>
      <trkpt lat="45.70379" lon="5.94146">
        <ele>460.608765</ele>
        <time>2011-05-22T07:13:13Z</time>
      </trkpt>
      <trkpt lat="45.70446" lon="5.94157">
        <ele>463.492798</ele>
        <time>2011-05-22T07:13:29Z</time>
      </trkpt>
      <trkpt lat="45.70506" lon="5.94148">
        <ele>464.454102</ele>
        <time>2011-05-22T07:13:44Z</time>
      </trkpt>
      <trkpt lat="45.70579" lon="5.94135">
        <ele>465.415527</ele>
        <time>2011-05-22T07:14:02Z</time>
      </trkpt>
      <trkpt lat="45.70639" lon="5.94131">
        <ele>465.415527</ele>
        <time>2011-05-22T07:14:19Z</time>
      </trkpt>
      <trkpt lat="45.7071" lon="5.94127">
        <ele>466.857422</ele>
        <time>2011-05-22T07:14:38Z</time>
      </trkpt>
      <trkpt lat="45.70742" lon="5.94124">
        <ele>466.376709</ele>
        <time>2011-05-22T07:14:45Z</time>
      </trkpt>
      <trkpt lat="45.70787" lon="5.94096">
        <ele>466.376709</ele>
        <time>2011-05-22T07:14:56Z</time>
      </trkpt>
      <trkpt lat="45.70806" lon="5.94096">
        <ele>464.934814</ele>
        <time>2011-05-22T07:15:00Z</time>
      </trkpt>
      <trkpt lat="45.70819" lon="5.94092">
        <ele>464.454102</ele>
        <time>2011-05-22T07:15:03Z</time>
      </trkpt>
      <trkpt lat="45.70825" lon="5.94071">
        <ele>462.531372</ele>
        <time>2011-05-22T07:15:07Z</time>
      </trkpt>
      <trkpt lat="45.7087" lon="5.94054">
        <ele>461.57019</ele>
        <time>2011-05-22T07:15:16Z</time>
      </trkpt>
      <trkpt lat="45.70946" lon="5.94039">
        <ele>461.089478</ele>
        <time>2011-05-22T07:15:33Z</time>
      </trkpt>
      <trkpt lat="45.70976" lon="5.93991">
        <ele>461.57019</ele>
        <time>2011-05-22T07:15:45Z</time>
      </trkpt>
      <trkpt lat="45.70988" lon="5.93976">
        <ele>462.531372</ele>
        <time>2011-05-22T07:15:49Z</time>
      </trkpt>
      <trkpt lat="45.70995" lon="5.9397">
        <ele>462.531372</ele>
        <time>2011-05-22T07:15:51Z</time>
      </trkpt>
      <trkpt lat="45.71034" lon="5.93955">
        <ele>463.492798</ele>
        <time>2011-05-22T07:16:01Z</time>
      </trkpt>
      <trkpt lat="45.71034" lon="5.94015">
        <ele>463.012085</ele>
        <time>2011-05-22T07:16:13Z</time>
      </trkpt>
      <trkpt lat="45.71027" lon="5.94071">
        <ele>464.454102</ele>
        <time>2011-05-22T07:16:28Z</time>
      </trkpt>
      <trkpt lat="45.71023" lon="5.94154">
        <ele>468.299316</ele>
        <time>2011-05-22T07:16:49Z</time>
      </trkpt>
      <trkpt lat="45.71016" lon="5.94236">
        <ele>474.547974</ele>
        <time>2011-05-22T07:17:10Z</time>
      </trkpt>
      <trkpt lat="45.71014" lon="5.94279">
        <ele>478.873901</ele>
        <time>2011-05-22T07:17:24Z</time>
      </trkpt>
      <trkpt lat="45.71006" lon="5.94283">
        <ele>479.835083</ele>
        <time>2011-05-22T07:17:29Z</time>
      </trkpt>
      <trkpt lat="45.70971" lon="5.94294">
        <ele>484.161133</ele>
        <time>2011-05-22T07:17:47Z</time>
      </trkpt>
      <trkpt lat="45.70967" lon="5.94326">
        <ele>488.487183</ele>
        <time>2011-05-22T07:18:01Z</time>
      </trkpt>
      <trkpt lat="45.70997" lon="5.94324">
        <ele>489.929077</ele>
        <time>2011-05-22T07:18:15Z</time>
      </trkpt>
      <trkpt lat="45.71044" lon="5.94343">
        <ele>493.774292</ele>
        <time>2011-05-22T07:18:40Z</time>
      </trkpt>
      <trkpt lat="45.71061" lon="5.9438">
        <ele>494.255005</ele>
        <time>2011-05-22T07:19:00Z</time>
      </trkpt>
      <trkpt lat="45.71034" lon="5.9441">
        <ele>495.696899</ele>
        <time>2011-05-22T07:19:26Z</time>
      </trkpt>
      <trkpt lat="45.71012" lon="5.94438">
        <ele>503.387451</ele>
        <time>2011-05-22T07:19:53Z</time>
      </trkpt>
      <trkpt lat="45.71001" lon="5.94472">
        <ele>510.59729</ele>
        <time>2011-05-22T07:20:21Z</time>
      </trkpt>
      <trkpt lat="45.70991" lon="5.94491">
        <ele>514.92334</ele>
        <time>2011-05-22T07:20:51Z</time>
      </trkpt>
      <trkpt lat="45.70997" lon="5.94496">
        <ele>530.785156</ele>
        <time>2011-05-22T07:21:25Z</time>
      </trkpt>
      <trkpt lat="45.70999" lon="5.94498">
        <ele>531.265747</ele>
        <time>2011-05-22T07:21:27Z</time>
      </trkpt>
      <trkpt lat="45.70999" lon="5.94532">
        <ele>532.707764</ele>
        <time>2011-05-22T07:21:44Z</time>
      </trkpt>
      <trkpt lat="45.70999" lon="5.94566">
        <ele>537.033691</ele>
        <time>2011-05-22T07:22:03Z</time>
      </trkpt>
      <trkpt lat="45.70999" lon="5.94581">
        <ele>537.514282</ele>
        <time>2011-05-22T07:22:10Z</time>
      </trkpt>
      <trkpt lat="45.70995" lon="5.94601">
        <ele>536.553101</ele>
        <time>2011-05-22T07:22:21Z</time>
      </trkpt>
      <trkpt lat="45.70991" lon="5.94605">
        <ele>537.033691</ele>
        <time>2011-05-22T07:22:25Z</time>
      </trkpt>
      <trkpt lat="45.70993" lon="5.94629">
        <ele>537.994995</ele>
        <time>2011-05-22T07:22:38Z</time>
      </trkpt>
      <trkpt lat="45.70993" lon="5.94641">
        <ele>539.43689</ele>
        <time>2011-05-22T07:22:44Z</time>
      </trkpt>
      <trkpt lat="45.70993" lon="5.94697">
        <ele>544.724243</ele>
        <time>2011-05-22T07:23:08Z</time>
      </trkpt>
      <trkpt lat="45.70991" lon="5.94744">
        <ele>549.530762</ele>
        <time>2011-05-22T07:23:31Z</time>
      </trkpt>
      <trkpt lat="45.70986" lon="5.94764">
        <ele>552.414551</ele>
        <time>2011-05-22T07:23:43Z</time>
      </trkpt>
      <trkpt lat="45.70986" lon="5.94768">
        <ele>552.414551</ele>
        <time>2011-05-22T07:23:45Z</time>
      </trkpt>
      <trkpt lat="45.70988" lon="5.94772">
        <ele>552.895264</ele>
        <time>2011-05-22T07:23:48Z</time>
      </trkpt>
      <trkpt lat="45.70986" lon="5.948">
        <ele>556.26001</ele>
        <time>2011-05-22T07:24:07Z</time>
      </trkpt>
      <trkpt lat="45.70982" lon="5.94828">
        <ele>558.182861</ele>
        <time>2011-05-22T07:24:24Z</time>
      </trkpt>
      <trkpt lat="45.70976" lon="5.94871">
        <ele>563.950439</ele>
        <time>2011-05-22T07:24:49Z</time>
      </trkpt>
      <trkpt lat="45.70971" lon="5.94901">
        <ele>566.834473</ele>
        <time>2011-05-22T07:25:06Z</time>
      </trkpt>
      <trkpt lat="45.70967" lon="5.94918">
        <ele>569.237793</ele>
        <time>2011-05-22T07:25:16Z</time>
      </trkpt>
      <trkpt lat="45.70967" lon="5.94925">
        <ele>570.198975</ele>
        <time>2011-05-22T07:25:20Z</time>
      </trkpt>
      <trkpt lat="45.70965" lon="5.94961">
        <ele>573.563965</ele>
        <time>2011-05-22T07:25:40Z</time>
      </trkpt>
      <trkpt lat="45.70958" lon="5.94998">
        <ele>577.889648</ele>
        <time>2011-05-22T07:26:00Z</time>
      </trkpt>
      <trkpt lat="45.70958" lon="5.94998">
        <ele>578.370361</ele>
        <time>2011-05-22T07:26:01Z</time>
      </trkpt>
      <trkpt lat="45.70954" lon="5.95013">
        <ele>579.812256</ele>
        <time>2011-05-22T07:26:10Z</time>
      </trkpt>
      <trkpt lat="45.70952" lon="5.95021">
        <ele>580.773682</ele>
        <time>2011-05-22T07:26:16Z</time>
      </trkpt>
      <trkpt lat="45.70937" lon="5.95053">
        <ele>584.138184</ele>
        <time>2011-05-22T07:26:37Z</time>
      </trkpt>
      <trkpt lat="45.7092" lon="5.95086">
        <ele>587.021973</ele>
        <time>2011-05-22T07:26:58Z</time>
      </trkpt>
      <trkpt lat="45.70903" lon="5.95131">
        <ele>589.90625</ele>
        <time>2011-05-22T07:27:23Z</time>
      </trkpt>
      <trkpt lat="45.709" lon="5.95137">
        <ele>589.425537</ele>
        <time>2011-05-22T07:27:37Z</time>
      </trkpt>
      <trkpt lat="45.709" lon="5.95141">
        <ele>590.386963</ele>
        <time>2011-05-22T07:27:59Z</time>
      </trkpt>
      <trkpt lat="45.70905" lon="5.95154">
        <ele>588.945068</ele>
        <time>2011-05-22T07:28:03Z</time>
      </trkpt>
      <trkpt lat="45.70961" lon="5.95221">
        <ele>584.138184</ele>
        <time>2011-05-22T07:28:15Z</time>
      </trkpt>
      <trkpt lat="45.70973" lon="5.95232">
        <ele>583.657471</ele>
        <time>2011-05-22T07:28:17Z</time>
      </trkpt>
      <trkpt lat="45.71074" lon="5.95281">
        <ele>577.889648</ele>
        <time>2011-05-22T07:28:28Z</time>
      </trkpt>
      <trkpt lat="45.71137" lon="5.95337">
        <ele>572.602539</ele>
        <time>2011-05-22T07:28:35Z</time>
      </trkpt>
      <trkpt lat="45.71182" lon="5.95362">
        <ele>568.75708</ele>
        <time>2011-05-22T07:28:40Z</time>
      </trkpt>
      <trkpt lat="45.71192" lon="5.95384">
        <ele>567.795654</ele>
        <time>2011-05-22T07:28:43Z</time>
      </trkpt>
      <trkpt lat="45.71192" lon="5.9542">
        <ele>566.35376</ele>
        <time>2011-05-22T07:28:52Z</time>
      </trkpt>
      <trkpt lat="45.71169" lon="5.95448">
        <ele>567.795654</ele>
        <time>2011-05-22T07:29:11Z</time>
      </trkpt>
      <trkpt lat="45.71162" lon="5.95485">
        <ele>574.044434</ele>
        <time>2011-05-22T07:29:29Z</time>
      </trkpt>
      <trkpt lat="45.71167" lon="5.95528">
        <ele>577.40918</ele>
        <time>2011-05-22T07:29:47Z</time>
      </trkpt>
      <trkpt lat="45.71154" lon="5.95577">
        <ele>581.734863</ele>
        <time>2011-05-22T07:30:08Z</time>
      </trkpt>
      <trkpt lat="45.71152" lon="5.95605">
        <ele>582.215576</ele>
        <time>2011-05-22T07:30:24Z</time>
      </trkpt>
      <trkpt lat="45.71152" lon="5.95605">
        <ele>582.696289</ele>
        <time>2011-05-22T07:30:25Z</time>
      </trkpt>
      <trkpt lat="45.71134" lon="5.95616">
        <ele>586.060791</ele>
        <time>2011-05-22T07:30:41Z</time>
      </trkpt>
      <trkpt lat="45.71117" lon="5.95629">
        <ele>588.945068</ele>
        <time>2011-05-22T07:30:58Z</time>
      </trkpt>
      <trkpt lat="45.71091" lon="5.95644">
        <ele>593.270752</ele>
        <time>2011-05-22T07:31:18Z</time>
      </trkpt>
      <trkpt lat="45.71066" lon="5.95646">
        <ele>597.59668</ele>
        <time>2011-05-22T07:31:36Z</time>
      </trkpt>
      <trkpt lat="45.71036" lon="5.9562">
        <ele>599.038574</ele>
        <time>2011-05-22T07:32:00Z</time>
      </trkpt>
      <trkpt lat="45.71021" lon="5.95607">
        <ele>600.961182</ele>
        <time>2011-05-22T07:32:10Z</time>
      </trkpt>
      <trkpt lat="45.70993" lon="5.95646">
        <ele>608.171387</ele>
        <time>2011-05-22T07:32:36Z</time>
      </trkpt>
      <trkpt lat="45.70971" lon="5.95686">
        <ele>612.977783</ele>
        <time>2011-05-22T07:32:55Z</time>
      </trkpt>
      <trkpt lat="45.70969" lon="5.95686">
        <ele>613.458496</ele>
        <time>2011-05-22T07:32:56Z</time>
      </trkpt>
      <trkpt lat="45.70973" lon="5.95697">
        <ele>613.938965</ele>
        <time>2011-05-22T07:33:02Z</time>
      </trkpt>
      <trkpt lat="45.70991" lon="5.95727">
        <ele>612.016602</ele>
        <time>2011-05-22T07:33:11Z</time>
      </trkpt>
      <trkpt lat="45.70999" lon="5.9574">
        <ele>611.055176</ele>
        <time>2011-05-22T07:33:13Z</time>
      </trkpt>
      <trkpt lat="45.71068" lon="5.9583">
        <ele>604.806641</ele>
        <time>2011-05-22T07:33:25Z</time>
      </trkpt>
      <trkpt lat="45.71072" lon="5.95837">
        <ele>603.845215</ele>
        <time>2011-05-22T07:33:26Z</time>
      </trkpt>
      <trkpt lat="45.71068" lon="5.95875">
        <ele>602.403076</ele>
        <time>2011-05-22T07:33:32Z</time>
      </trkpt>
      <trkpt lat="45.71034" lon="5.9591">
        <ele>602.403076</ele>
        <time>2011-05-22T07:33:46Z</time>
      </trkpt>
      <trkpt lat="45.70986" lon="5.95948">
        <ele>605.287354</ele>
        <time>2011-05-22T07:34:04Z</time>
      </trkpt>
      <trkpt lat="45.70943" lon="5.96034">
        <ele>606.729248</ele>
        <time>2011-05-22T07:34:25Z</time>
      </trkpt>
      <trkpt lat="45.70926" lon="5.96096">
        <ele>607.690674</ele>
        <time>2011-05-22T07:34:42Z</time>
      </trkpt>
      <trkpt lat="45.70903" lon="5.96159">
        <ele>611.535889</ele>
        <time>2011-05-22T07:35:04Z</time>
      </trkpt>
      <trkpt lat="45.70879" lon="5.96197">
        <ele>614.419678</ele>
        <time>2011-05-22T07:35:20Z</time>
      </trkpt>
      <trkpt lat="45.70873" lon="5.96242">
        <ele>617.303711</ele>
        <time>2011-05-22T07:35:37Z</time>
      </trkpt>
      <trkpt lat="45.70866" lon="5.96287">
        <ele>622.110352</ele>
        <time>2011-05-22T07:35:57Z</time>
      </trkpt>
      <trkpt lat="45.70845" lon="5.96304">
        <ele>625.474854</ele>
        <time>2011-05-22T07:36:11Z</time>
      </trkpt>
      <trkpt lat="45.70834" lon="5.96365">
        <ele>630.762207</ele>
        <time>2011-05-22T07:36:33Z</time>
      </trkpt>
      <trkpt lat="45.70806" lon="5.96412">
        <ele>636.049561</ele>
        <time>2011-05-22T07:36:56Z</time>
      </trkpt>
      <trkpt lat="45.70782" lon="5.9645">
        <ele>639.414063</ele>
        <time>2011-05-22T07:37:16Z</time>
      </trkpt>
      <trkpt lat="45.70763" lon="5.96489">
        <ele>641.817383</ele>
        <time>2011-05-22T07:37:33Z</time>
      </trkpt>
      <trkpt lat="45.70748" lon="5.96515">
        <ele>643.73999</ele>
        <time>2011-05-22T07:37:46Z</time>
      </trkpt>
      <trkpt lat="45.70735" lon="5.96551">
        <ele>647.104492</ele>
        <time>2011-05-22T07:38:02Z</time>
      </trkpt>
      <trkpt lat="45.7071" lon="5.9659">
        <ele>650.469238</ele>
        <time>2011-05-22T07:38:21Z</time>
      </trkpt>
      <trkpt lat="45.7069" lon="5.96622">
        <ele>651.911133</ele>
        <time>2011-05-22T07:38:38Z</time>
      </trkpt>
      <trkpt lat="45.70684" lon="5.96633">
        <ele>653.353271</ele>
        <time>2011-05-22T07:38:55Z</time>
      </trkpt>
      <trkpt lat="45.70675" lon="5.96648">
        <ele>663.92749</ele>
        <time>2011-05-22T07:46:21Z</time>
      </trkpt>
      <trkpt lat="45.70677" lon="5.96646">
        <ele>657.679199</ele>
        <time>2011-05-22T07:47:08Z</time>
      </trkpt>
      <trkpt lat="45.70686" lon="5.96656">
        <ele>658.640381</ele>
        <time>2011-05-22T07:47:35Z</time>
      </trkpt>
      <trkpt lat="45.70682" lon="5.9665">
        <ele>657.679199</ele>
        <time>2011-05-22T07:48:04Z</time>
      </trkpt>
      <trkpt lat="45.70677" lon="5.96661">
        <ele>659.121094</ele>
        <time>2011-05-22T07:48:55Z</time>
      </trkpt>
      <trkpt lat="45.70664" lon="5.96704">
        <ele>656.717773</ele>
        <time>2011-05-22T07:49:13Z</time>
      </trkpt>
      <trkpt lat="45.70628" lon="5.96734">
        <ele>656.717773</ele>
        <time>2011-05-22T07:49:37Z</time>
      </trkpt>
      <trkpt lat="45.70591" lon="5.96757">
        <ele>660.082275</ele>
        <time>2011-05-22T07:50:03Z</time>
      </trkpt>
      <trkpt lat="45.70566" lon="5.96757">
        <ele>661.043701</ele>
        <time>2011-05-22T07:50:20Z</time>
      </trkpt>
      <trkpt lat="45.70542" lon="5.96744">
        <ele>663.92749</ele>
        <time>2011-05-22T07:50:39Z</time>
      </trkpt>
      <trkpt lat="45.7051" lon="5.96727">
        <ele>673.541016</ele>
        <time>2011-05-22T07:50:58Z</time>
      </trkpt>
      <trkpt lat="45.70489" lon="5.96725">
        <ele>678.828125</ele>
        <time>2011-05-22T07:51:14Z</time>
      </trkpt>
      <trkpt lat="45.70452" lon="5.96727">
        <ele>677.866699</ele>
        <time>2011-05-22T07:51:37Z</time>
      </trkpt>
      <trkpt lat="45.70424" lon="5.96734">
        <ele>684.596191</ele>
        <time>2011-05-22T07:51:58Z</time>
      </trkpt>
      <trkpt lat="45.70401" lon="5.96751">
        <ele>689.883301</ele>
        <time>2011-05-22T07:52:15Z</time>
      </trkpt>
      <trkpt lat="45.70368" lon="5.96751">
        <ele>694.209229</ele>
        <time>2011-05-22T07:52:33Z</time>
      </trkpt>
      <trkpt lat="45.7036" lon="5.96749">
        <ele>695.651123</ele>
        <time>2011-05-22T07:52:39Z</time>
      </trkpt>
      <trkpt lat="45.70338" lon="5.96723">
        <ele>699.977051</ele>
        <time>2011-05-22T07:52:59Z</time>
      </trkpt>
      <trkpt lat="45.70308" lon="5.96719">
        <ele>707.667725</ele>
        <time>2011-05-22T07:53:21Z</time>
      </trkpt>
      <trkpt lat="45.70295" lon="5.96727">
        <ele>709.109619</ele>
        <time>2011-05-22T07:53:30Z</time>
      </trkpt>
      <trkpt lat="45.7027" lon="5.96749">
        <ele>711.993652</ele>
        <time>2011-05-22T07:53:51Z</time>
      </trkpt>
      <trkpt lat="45.7024" lon="5.96768">
        <ele>713.916016</ele>
        <time>2011-05-22T07:54:10Z</time>
      </trkpt>
      <trkpt lat="45.70214" lon="5.96785">
        <ele>713.916016</ele>
        <time>2011-05-22T07:54:30Z</time>
      </trkpt>
      <trkpt lat="45.70188" lon="5.96813">
        <ele>716.31958</ele>
        <time>2011-05-22T07:54:52Z</time>
      </trkpt>
      <trkpt lat="45.70171" lon="5.96826">
        <ele>723.529541</ele>
        <time>2011-05-22T07:55:09Z</time>
      </trkpt>
      <trkpt lat="45.70167" lon="5.96828">
        <ele>726.894043</ele>
        <time>2011-05-22T07:55:14Z</time>
      </trkpt>
      <trkpt lat="45.70147" lon="5.9683">
        <ele>733.623291</ele>
        <time>2011-05-22T07:55:30Z</time>
      </trkpt>
      <trkpt lat="45.70145" lon="5.9683">
        <ele>734.584717</ele>
        <time>2011-05-22T07:55:32Z</time>
      </trkpt>
      <trkpt lat="45.70141" lon="5.96826">
        <ele>736.507324</ele>
        <time>2011-05-22T07:55:37Z</time>
      </trkpt>
      <trkpt lat="45.70122" lon="5.96807">
        <ele>743.236328</ele>
        <time>2011-05-22T07:55:57Z</time>
      </trkpt>
      <trkpt lat="45.70113" lon="5.96796">
        <ele>745.158936</ele>
        <time>2011-05-22T07:56:05Z</time>
      </trkpt>
      <trkpt lat="45.70096" lon="5.96766">
        <ele>748.523682</ele>
        <time>2011-05-22T07:56:25Z</time>
      </trkpt>
      <trkpt lat="45.70089" lon="5.96716">
        <ele>751.888428</ele>
        <time>2011-05-22T07:56:49Z</time>
      </trkpt>
      <trkpt lat="45.70081" lon="5.96716">
        <ele>752.849609</ele>
        <time>2011-05-22T07:56:56Z</time>
      </trkpt>
      <trkpt lat="45.70068" lon="5.96751">
        <ele>753.330322</ele>
        <time>2011-05-22T07:57:14Z</time>
      </trkpt>
      <trkpt lat="45.70068" lon="5.96815">
        <ele>754.772217</ele>
        <time>2011-05-22T07:57:30Z</time>
      </trkpt>
      <trkpt lat="45.70072" lon="5.96897">
        <ele>753.811035</ele>
        <time>2011-05-22T07:57:53Z</time>
      </trkpt>
      <trkpt lat="45.70077" lon="5.96968">
        <ele>755.25293</ele>
        <time>2011-05-22T07:58:15Z</time>
      </trkpt>
      <trkpt lat="45.70096" lon="5.9703">
        <ele>755.733643</ele>
        <time>2011-05-22T07:58:38Z</time>
      </trkpt>
      <trkpt lat="45.70104" lon="5.97094">
        <ele>759.098145</ele>
        <time>2011-05-22T07:59:00Z</time>
      </trkpt>
      <trkpt lat="45.70107" lon="5.97146">
        <ele>763.424072</ele>
        <time>2011-05-22T07:59:20Z</time>
      </trkpt>
      <trkpt lat="45.70109" lon="5.97195">
        <ele>768.230713</ele>
        <time>2011-05-22T07:59:40Z</time>
      </trkpt>
      <trkpt lat="45.70111" lon="5.97244">
        <ele>773.518066</ele>
        <time>2011-05-22T08:00:00Z</time>
      </trkpt>
      <trkpt lat="45.70094" lon="5.97283">
        <ele>778.805176</ele>
        <time>2011-05-22T08:00:20Z</time>
      </trkpt>
      <trkpt lat="45.70074" lon="5.97311">
        <ele>779.285645</ele>
        <time>2011-05-22T08:00:41Z</time>
      </trkpt>
      <trkpt lat="45.7007" lon="5.97317">
        <ele>781.20874</ele>
        <time>2011-05-22T08:00:46Z</time>
      </trkpt>
      <trkpt lat="45.70046" lon="5.97302">
        <ele>787.457031</ele>
        <time>2011-05-22T08:01:06Z</time>
      </trkpt>
      <trkpt lat="45.70038" lon="5.97296">
        <ele>789.379639</ele>
        <time>2011-05-22T08:01:14Z</time>
      </trkpt>
      <trkpt lat="45.70031" lon="5.97292">
        <ele>790.821533</ele>
        <time>2011-05-22T08:01:19Z</time>
      </trkpt>
      <trkpt lat="45.70008" lon="5.97276">
        <ele>796.589844</ele>
        <time>2011-05-22T08:01:37Z</time>
      </trkpt>
      <trkpt lat="45.69982" lon="5.97259">
        <ele>799.954346</ele>
        <time>2011-05-22T08:01:56Z</time>
      </trkpt>
      <trkpt lat="45.69956" lon="5.97244">
        <ele>803.799561</ele>
        <time>2011-05-22T08:02:14Z</time>
      </trkpt>
      <trkpt lat="45.69924" lon="5.97223">
        <ele>807.644775</ele>
        <time>2011-05-22T08:02:36Z</time>
      </trkpt>
      <trkpt lat="45.69896" lon="5.97206">
        <ele>810.528564</ele>
        <time>2011-05-22T08:02:55Z</time>
      </trkpt>
      <trkpt lat="45.69873" lon="5.97191">
        <ele>812.451416</ele>
        <time>2011-05-22T08:03:12Z</time>
      </trkpt>
      <trkpt lat="45.69862" lon="5.97186">
        <ele>815.335449</ele>
        <time>2011-05-22T08:03:20Z</time>
      </trkpt>
      <trkpt lat="45.69858" lon="5.97195">
        <ele>815.816162</ele>
        <time>2011-05-22T08:03:24Z</time>
      </trkpt>
      <trkpt lat="45.69868" lon="5.97242">
        <ele>817.738525</ele>
        <time>2011-05-22T08:03:45Z</time>
      </trkpt>
      <trkpt lat="45.69875" lon="5.97304">
        <ele>818.699951</ele>
        <time>2011-05-22T08:04:10Z</time>
      </trkpt>
      <trkpt lat="45.69879" lon="5.97352">
        <ele>821.58374</ele>
        <time>2011-05-22T08:04:28Z</time>
      </trkpt>
      <trkpt lat="45.69886" lon="5.97375">
        <ele>824.467773</ele>
        <time>2011-05-22T08:04:38Z</time>
      </trkpt>
      <trkpt lat="45.69875" lon="5.97373">
        <ele>825.428955</ele>
        <time>2011-05-22T08:04:48Z</time>
      </trkpt>
      <trkpt lat="45.69847" lon="5.97352">
        <ele>830.23584</ele>
        <time>2011-05-22T08:05:09Z</time>
      </trkpt>
      <trkpt lat="45.69821" lon="5.97337">
        <ele>834.561768</ele>
        <time>2011-05-22T08:05:28Z</time>
      </trkpt>
      <trkpt lat="45.69787" lon="5.97315">
        <ele>837.92627</ele>
        <time>2011-05-22T08:05:55Z</time>
      </trkpt>
      <trkpt lat="45.69768" lon="5.97302">
        <ele>838.406982</ele>
        <time>2011-05-22T08:06:10Z</time>
      </trkpt>
      <trkpt lat="45.69735" lon="5.97283">
        <ele>842.73291</ele>
        <time>2011-05-22T08:06:34Z</time>
      </trkpt>
      <trkpt lat="45.69714" lon="5.97272">
        <ele>846.578369</ele>
        <time>2011-05-22T08:06:52Z</time>
      </trkpt>
      <trkpt lat="45.69703" lon="5.9727">
        <ele>847.539551</ele>
        <time>2011-05-22T08:07:00Z</time>
      </trkpt>
      <trkpt lat="45.69695" lon="5.97266">
        <ele>849.462158</ele>
        <time>2011-05-22T08:07:07Z</time>
      </trkpt>
      <trkpt lat="45.69662" lon="5.97257">
        <ele>857.633301</ele>
        <time>2011-05-22T08:07:29Z</time>
      </trkpt>
      <trkpt lat="45.69634" lon="5.97255">
        <ele>859.555908</ele>
        <time>2011-05-22T08:07:48Z</time>
      </trkpt>
      <trkpt lat="45.69602" lon="5.97236">
        <ele>863.881836</ele>
        <time>2011-05-22T08:08:10Z</time>
      </trkpt>
      <trkpt lat="45.69577" lon="5.97204">
        <ele>865.323975</ele>
        <time>2011-05-22T08:08:28Z</time>
      </trkpt>
      <trkpt lat="45.69542" lon="5.97161">
        <ele>868.207764</ele>
        <time>2011-05-22T08:08:48Z</time>
      </trkpt>
      <trkpt lat="45.69508" lon="5.97096">
        <ele>869.169189</ele>
        <time>2011-05-22T08:09:15Z</time>
      </trkpt>
      <trkpt lat="45.69495" lon="5.97051">
        <ele>873.495117</ele>
        <time>2011-05-22T08:09:36Z</time>
      </trkpt>
      <trkpt lat="45.69489" lon="5.97028">
        <ele>873.975586</ele>
        <time>2011-05-22T08:09:54Z</time>
      </trkpt>
      <trkpt lat="45.69491" lon="5.97023">
        <ele>887.914795</ele>
        <time>2011-05-22T08:11:20Z</time>
      </trkpt>
      <trkpt lat="45.69484" lon="5.97008">
        <ele>878.301758</ele>
        <time>2011-05-22T08:12:59Z</time>
      </trkpt>
      <trkpt lat="45.69478" lon="5.96963">
        <ele>877.340576</ele>
        <time>2011-05-22T08:13:06Z</time>
      </trkpt>
      <trkpt lat="45.69474" lon="5.9692">
        <ele>877.340576</ele>
        <time>2011-05-22T08:13:10Z</time>
      </trkpt>
      <trkpt lat="45.6942" lon="5.96721">
        <ele>876.859863</ele>
        <time>2011-05-22T08:13:25Z</time>
      </trkpt>
      <trkpt lat="45.69308" lon="5.96448">
        <ele>876.859863</ele>
        <time>2011-05-22T08:13:47Z</time>
      </trkpt>
      <trkpt lat="45.69248" lon="5.96319">
        <ele>874.456299</ele>
        <time>2011-05-22T08:14:01Z</time>
      </trkpt>
      <trkpt lat="45.69229" lon="5.96304">
        <ele>869.169189</ele>
        <time>2011-05-22T08:14:09Z</time>
      </trkpt>
      <trkpt lat="45.69186" lon="5.96328">
        <ele>850.904053</ele>
        <time>2011-05-22T08:14:29Z</time>
      </trkpt>
      <trkpt lat="45.69122" lon="5.96328">
        <ele>847.058838</ele>
        <time>2011-05-22T08:14:49Z</time>
      </trkpt>
      <trkpt lat="45.69072" lon="5.96298">
        <ele>842.252197</ele>
        <time>2011-05-22T08:15:11Z</time>
      </trkpt>
      <trkpt lat="45.69034" lon="5.96257">
        <ele>842.252197</ele>
        <time>2011-05-22T08:15:26Z</time>
      </trkpt>
      <trkpt lat="45.69008" lon="5.96257">
        <ele>842.252197</ele>
        <time>2011-05-22T08:15:31Z</time>
      </trkpt>
      <trkpt lat="45.6898" lon="5.96253">
        <ele>842.252197</ele>
        <time>2011-05-22T08:15:36Z</time>
      </trkpt>
      <trkpt lat="45.68967" lon="5.96249">
        <ele>842.252197</ele>
        <time>2011-05-22T08:15:39Z</time>
      </trkpt>
      <trkpt lat="45.68939" lon="5.96219">
        <ele>842.252197</ele>
        <time>2011-05-22T08:15:48Z</time>
      </trkpt>
      <trkpt lat="45.68926" lon="5.96161">
        <ele>836.003662</ele>
        <time>2011-05-22T08:16:03Z</time>
      </trkpt>
      <trkpt lat="45.68896" lon="5.96141">
        <ele>835.04248</ele>
        <time>2011-05-22T08:16:26Z</time>
      </trkpt>
      <trkpt lat="45.68883" lon="5.96124">
        <ele>829.274414</ele>
        <time>2011-05-22T08:16:53Z</time>
      </trkpt>
      <trkpt lat="45.68864" lon="5.96113">
        <ele>823.025879</ele>
        <time>2011-05-22T08:17:22Z</time>
      </trkpt>
      <trkpt lat="45.68847" lon="5.96118">
        <ele>821.103271</ele>
        <time>2011-05-22T08:17:48Z</time>
      </trkpt>
      <trkpt lat="45.68836" lon="5.96133">
        <ele>822.064453</ele>
        <time>2011-05-22T08:17:59Z</time>
      </trkpt>
      <trkpt lat="45.68802" lon="5.96126">
        <ele>818.219238</ele>
        <time>2011-05-22T08:18:18Z</time>
      </trkpt>
      <trkpt lat="45.68776" lon="5.96122">
        <ele>812.451416</ele>
        <time>2011-05-22T08:18:36Z</time>
      </trkpt>
      <trkpt lat="45.68765" lon="5.96122">
        <ele>811.48999</ele>
        <time>2011-05-22T08:19:00Z</time>
      </trkpt>
      <trkpt lat="45.68746" lon="5.9612">
        <ele>811.009277</ele>
        <time>2011-05-22T08:19:18Z</time>
      </trkpt>
      <trkpt lat="45.68699" lon="5.96116">
        <ele>808.605957</ele>
        <time>2011-05-22T08:19:42Z</time>
      </trkpt>
      <trkpt lat="45.68654" lon="5.96064">
        <ele>806.202637</ele>
        <time>2011-05-22T08:20:11Z</time>
      </trkpt>
      <trkpt lat="45.68611" lon="5.96036">
        <ele>801.876953</ele>
        <time>2011-05-22T08:20:31Z</time>
      </trkpt>
      <trkpt lat="45.68523" lon="5.95961">
        <ele>796.589844</ele>
        <time>2011-05-22T08:20:48Z</time>
      </trkpt>
      <trkpt lat="45.68521" lon="5.95959">
        <ele>796.589844</ele>
        <time>2011-05-22T08:20:49Z</time>
      </trkpt>
      <trkpt lat="45.68506" lon="5.95942">
        <ele>796.589844</ele>
        <time>2011-05-22T08:20:53Z</time>
      </trkpt>
      <trkpt lat="45.68504" lon="5.95935">
        <ele>792.263672</ele>
        <time>2011-05-22T08:21:02Z</time>
      </trkpt>
      <trkpt lat="45.68499" lon="5.95935">
        <ele>790.341064</ele>
        <time>2011-05-22T08:21:05Z</time>
      </trkpt>
      <trkpt lat="45.68487" lon="5.95944">
        <ele>781.20874</ele>
        <time>2011-05-22T08:21:25Z</time>
      </trkpt>
      <trkpt lat="45.68463" lon="5.95955">
        <ele>784.092529</ele>
        <time>2011-05-22T08:21:44Z</time>
      </trkpt>
      <trkpt lat="45.68433" lon="5.95961">
        <ele>782.169922</ele>
        <time>2011-05-22T08:22:05Z</time>
      </trkpt>
      <trkpt lat="45.68411" lon="5.95991">
        <ele>786.976318</ele>
        <time>2011-05-22T08:22:23Z</time>
      </trkpt>
      <trkpt lat="45.68379" lon="5.96006">
        <ele>789.379639</ele>
        <time>2011-05-22T08:22:51Z</time>
      </trkpt>
      <trkpt lat="45.68358" lon="5.96019">
        <ele>790.821533</ele>
        <time>2011-05-22T08:23:13Z</time>
      </trkpt>
      <trkpt lat="45.6833" lon="5.96043">
        <ele>787.937744</ele>
        <time>2011-05-22T08:23:41Z</time>
      </trkpt>
      <trkpt lat="45.68315" lon="5.96045">
        <ele>797.551025</ele>
        <time>2011-05-22T08:24:00Z</time>
      </trkpt>
      <trkpt lat="45.683" lon="5.96041">
        <ele>803.799561</ele>
        <time>2011-05-22T08:25:17Z</time>
      </trkpt>
      <trkpt lat="45.6827" lon="5.96038">
        <ele>802.838135</ele>
        <time>2011-05-22T08:25:32Z</time>
      </trkpt>
      <trkpt lat="45.6824" lon="5.96028">
        <ele>798.99292</ele>
        <time>2011-05-22T08:25:49Z</time>
      </trkpt>
      <trkpt lat="45.68225" lon="5.96034">
        <ele>796.109131</ele>
        <time>2011-05-22T08:25:56Z</time>
      </trkpt>
      <trkpt lat="45.68214" lon="5.96075">
        <ele>795.628174</ele>
        <time>2011-05-22T08:26:10Z</time>
      </trkpt>
      <trkpt lat="45.68205" lon="5.96079">
        <ele>794.666748</ele>
        <time>2011-05-22T08:26:15Z</time>
      </trkpt>
      <trkpt lat="45.68199" lon="5.96081">
        <ele>793.705566</ele>
        <time>2011-05-22T08:26:18Z</time>
      </trkpt>
      <trkpt lat="45.68197" lon="5.9609">
        <ele>793.224854</ele>
        <time>2011-05-22T08:26:23Z</time>
      </trkpt>
      <trkpt lat="45.68197" lon="5.96135">
        <ele>794.186279</ele>
        <time>2011-05-22T08:26:41Z</time>
      </trkpt>
      <trkpt lat="45.68167" lon="5.96163">
        <ele>796.109131</ele>
        <time>2011-05-22T08:26:57Z</time>
      </trkpt>
      <trkpt lat="45.68124" lon="5.96161">
        <ele>798.512207</ele>
        <time>2011-05-22T08:27:14Z</time>
      </trkpt>
      <trkpt lat="45.68102" lon="5.9618">
        <ele>800.435059</ele>
        <time>2011-05-22T08:27:25Z</time>
      </trkpt>
      <trkpt lat="45.68111" lon="5.96191">
        <ele>801.876953</ele>
        <time>2011-05-22T08:27:30Z</time>
      </trkpt>
      <trkpt lat="45.68152" lon="5.96208">
        <ele>804.760742</ele>
        <time>2011-05-22T08:27:50Z</time>
      </trkpt>
      <trkpt lat="45.68175" lon="5.96229">
        <ele>807.164063</ele>
        <time>2011-05-22T08:28:07Z</time>
      </trkpt>
      <trkpt lat="45.68203" lon="5.96236">
        <ele>812.451416</ele>
        <time>2011-05-22T08:28:26Z</time>
      </trkpt>
      <trkpt lat="45.68244" lon="5.96253">
        <ele>817.738525</ele>
        <time>2011-05-22T08:28:49Z</time>
      </trkpt>
      <trkpt lat="45.68281" lon="5.96259">
        <ele>822.064453</ele>
        <time>2011-05-22T08:29:09Z</time>
      </trkpt>
      <trkpt lat="45.68291" lon="5.96287">
        <ele>826.390381</ele>
        <time>2011-05-22T08:29:25Z</time>
      </trkpt>
      <trkpt lat="45.68287" lon="5.96294">
        <ele>827.832275</ele>
        <time>2011-05-22T08:29:29Z</time>
      </trkpt>
      <trkpt lat="45.68257" lon="5.96304">
        <ele>828.313232</ele>
        <time>2011-05-22T08:29:47Z</time>
      </trkpt>
      <trkpt lat="45.6822" lon="5.96317">
        <ele>827.832275</ele>
        <time>2011-05-22T08:30:05Z</time>
      </trkpt>
      <trkpt lat="45.68182" lon="5.96335">
        <ele>833.119629</ele>
        <time>2011-05-22T08:30:26Z</time>
      </trkpt>
      <trkpt lat="45.68158" lon="5.96369">
        <ele>836.484375</ele>
        <time>2011-05-22T08:30:44Z</time>
      </trkpt>
      <trkpt lat="45.68126" lon="5.9641">
        <ele>840.810059</ele>
        <time>2011-05-22T08:31:08Z</time>
      </trkpt>
      <trkpt lat="45.68094" lon="5.96418">
        <ele>845.616943</ele>
        <time>2011-05-22T08:31:28Z</time>
      </trkpt>
      <trkpt lat="45.68057" lon="5.9642">
        <ele>851.865479</ele>
        <time>2011-05-22T08:31:49Z</time>
      </trkpt>
      <trkpt lat="45.68029" lon="5.96422">
        <ele>857.633301</ele>
        <time>2011-05-22T08:32:08Z</time>
      </trkpt>
      <trkpt lat="45.6801" lon="5.96405">
        <ele>863.401367</ele>
        <time>2011-05-22T08:32:25Z</time>
      </trkpt>
      <trkpt lat="45.67991" lon="5.9639">
        <ele>865.323975</ele>
        <time>2011-05-22T08:32:41Z</time>
      </trkpt>
      <trkpt lat="45.67967" lon="5.96399">
        <ele>868.207764</ele>
        <time>2011-05-22T08:32:55Z</time>
      </trkpt>
      <trkpt lat="45.67944" lon="5.96386">
        <ele>873.495117</ele>
        <time>2011-05-22T08:33:12Z</time>
      </trkpt>
      <trkpt lat="45.67922" lon="5.96371">
        <ele>875.41748</ele>
        <time>2011-05-22T08:33:26Z</time>
      </trkpt>
      <trkpt lat="45.67916" lon="5.96384">
        <ele>874.937012</ele>
        <time>2011-05-22T08:33:39Z</time>
      </trkpt>
      <trkpt lat="45.67916" lon="5.96384">
        <ele>874.456299</ele>
        <time>2011-05-22T08:33:40Z</time>
      </trkpt>
      <trkpt lat="45.67914" lon="5.96392">
        <ele>874.937012</ele>
        <time>2011-05-22T08:33:52Z</time>
      </trkpt>
      <trkpt lat="45.67907" lon="5.9639">
        <ele>881.66626</ele>
        <time>2011-05-22T08:36:15Z</time>
      </trkpt>
      <trkpt lat="45.67905" lon="5.9639">
        <ele>879.743652</ele>
        <time>2011-05-22T08:36:29Z</time>
      </trkpt>
      <trkpt lat="45.67901" lon="5.96395">
        <ele>879.262939</ele>
        <time>2011-05-22T08:36:34Z</time>
      </trkpt>
      <trkpt lat="45.67871" lon="5.9641">
        <ele>879.262939</ele>
        <time>2011-05-22T08:36:52Z</time>
      </trkpt>
      <trkpt lat="45.67836" lon="5.96418">
        <ele>881.66626</ele>
        <time>2011-05-22T08:37:09Z</time>
      </trkpt>
      <trkpt lat="45.67798" lon="5.96392">
        <ele>878.782471</ele>
        <time>2011-05-22T08:37:29Z</time>
      </trkpt>
      <trkpt lat="45.67796" lon="5.9638">
        <ele>878.782471</ele>
        <time>2011-05-22T08:37:33Z</time>
      </trkpt>
      <trkpt lat="45.67815" lon="5.96304">
        <ele>881.66626</ele>
        <time>2011-05-22T08:37:52Z</time>
      </trkpt>
      <trkpt lat="45.67813" lon="5.96296">
        <ele>882.146973</ele>
        <time>2011-05-22T08:37:54Z</time>
      </trkpt>
      <trkpt lat="45.67802" lon="5.96285">
        <ele>880.224365</ele>
        <time>2011-05-22T08:37:58Z</time>
      </trkpt>
      <trkpt lat="45.67793" lon="5.96274">
        <ele>879.743652</ele>
        <time>2011-05-22T08:38:01Z</time>
      </trkpt>
      <trkpt lat="45.67763" lon="5.96216">
        <ele>879.743652</ele>
        <time>2011-05-22T08:38:16Z</time>
      </trkpt>
      <trkpt lat="45.67742" lon="5.96204">
        <ele>878.301758</ele>
        <time>2011-05-22T08:38:23Z</time>
      </trkpt>
      <trkpt lat="45.67733" lon="5.96199">
        <ele>880.224365</ele>
        <time>2011-05-22T08:38:25Z</time>
      </trkpt>
      <trkpt lat="45.67701" lon="5.96229">
        <ele>878.301758</ele>
        <time>2011-05-22T08:38:31Z</time>
      </trkpt>
      <trkpt lat="45.67673" lon="5.96283">
        <ele>877.340576</ele>
        <time>2011-05-22T08:38:37Z</time>
      </trkpt>
      <trkpt lat="45.67652" lon="5.96298">
        <ele>875.898193</ele>
        <time>2011-05-22T08:38:40Z</time>
      </trkpt>
      <trkpt lat="45.67632" lon="5.96294">
        <ele>875.41748</ele>
        <time>2011-05-22T08:38:43Z</time>
      </trkpt>
      <trkpt lat="45.67626" lon="5.96279">
        <ele>875.41748</ele>
        <time>2011-05-22T08:38:45Z</time>
      </trkpt>
      <trkpt lat="45.67605" lon="5.96212">
        <ele>873.014404</ele>
        <time>2011-05-22T08:38:51Z</time>
      </trkpt>
      <trkpt lat="45.67577" lon="5.96199">
        <ele>870.611084</ele>
        <time>2011-05-22T08:38:57Z</time>
      </trkpt>
      <trkpt lat="45.67538" lon="5.96229">
        <ele>868.688477</ele>
        <time>2011-05-22T08:39:04Z</time>
      </trkpt>
      <trkpt lat="45.67523" lon="5.96219">
        <ele>868.688477</ele>
        <time>2011-05-22T08:39:07Z</time>
      </trkpt>
      <trkpt lat="45.67493" lon="5.96193">
        <ele>869.649902</ele>
        <time>2011-05-22T08:39:12Z</time>
      </trkpt>
      <trkpt lat="45.67399" lon="5.96135">
        <ele>867.246582</ele>
        <time>2011-05-22T08:39:26Z</time>
      </trkpt>
      <trkpt lat="45.67409" lon="5.96071">
        <ele>865.804688</ele>
        <time>2011-05-22T08:39:32Z</time>
      </trkpt>
      <trkpt lat="45.6736" lon="5.96034">
        <ele>864.362549</ele>
        <time>2011-05-22T08:39:41Z</time>
      </trkpt>
      <trkpt lat="45.67332" lon="5.95968">
        <ele>857.152588</ele>
        <time>2011-05-22T08:39:53Z</time>
      </trkpt>
      <trkpt lat="45.67334" lon="5.95959">
        <ele>847.058838</ele>
        <time>2011-05-22T08:40:11Z</time>
      </trkpt>
      <trkpt lat="45.67332" lon="5.95957">
        <ele>846.097656</ele>
        <time>2011-05-22T08:40:16Z</time>
      </trkpt>
      <trkpt lat="45.67332" lon="5.95953">
        <ele>839.368164</ele>
        <time>2011-05-22T08:40:32Z</time>
      </trkpt>
      <trkpt lat="45.67336" lon="5.95938">
        <ele>834.081055</ele>
        <time>2011-05-22T08:40:47Z</time>
      </trkpt>
      <trkpt lat="45.67354" lon="5.95953">
        <ele>817.258057</ele>
        <time>2011-05-22T08:41:35Z</time>
      </trkpt>
      <trkpt lat="45.67465" lon="5.96008">
        <ele>812.451416</ele>
        <time>2011-05-22T08:41:53Z</time>
      </trkpt>
      <trkpt lat="45.67452" lon="5.95985">
        <ele>811.009277</ele>
        <time>2011-05-22T08:42:04Z</time>
      </trkpt>
      <trkpt lat="45.67448" lon="5.95972">
        <ele>811.009277</ele>
        <time>2011-05-22T08:42:08Z</time>
      </trkpt>
      <trkpt lat="45.67429" lon="5.95942">
        <ele>807.164063</ele>
        <time>2011-05-22T08:42:18Z</time>
      </trkpt>
      <trkpt lat="45.67433" lon="5.95942">
        <ele>805.722168</ele>
        <time>2011-05-22T08:42:23Z</time>
      </trkpt>
      <trkpt lat="45.67465" lon="5.95946">
        <ele>800.435059</ele>
        <time>2011-05-22T08:42:42Z</time>
      </trkpt>
      <trkpt lat="45.67476" lon="5.95942">
        <ele>799.954346</ele>
        <time>2011-05-22T08:42:52Z</time>
      </trkpt>
      <trkpt lat="45.67463" lon="5.9592">
        <ele>796.109131</ele>
        <time>2011-05-22T08:42:57Z</time>
      </trkpt>
      <trkpt lat="45.67442" lon="5.95897">
        <ele>793.705566</ele>
        <time>2011-05-22T08:43:03Z</time>
      </trkpt>
      <trkpt lat="45.67437" lon="5.95884">
        <ele>790.821533</ele>
        <time>2011-05-22T08:43:06Z</time>
      </trkpt>
      <trkpt lat="45.67431" lon="5.95873">
        <ele>789.379639</ele>
        <time>2011-05-22T08:43:10Z</time>
      </trkpt>
      <trkpt lat="45.67422" lon="5.95882">
        <ele>788.418457</ele>
        <time>2011-05-22T08:43:13Z</time>
      </trkpt>
      <trkpt lat="45.67386" lon="5.95811">
        <ele>788.89917</ele>
        <time>2011-05-22T08:43:28Z</time>
      </trkpt>
      <trkpt lat="45.67375" lon="5.95783">
        <ele>783.611816</ele>
        <time>2011-05-22T08:43:37Z</time>
      </trkpt>
      <trkpt lat="45.67426" lon="5.9574">
        <ele>781.20874</ele>
        <time>2011-05-22T08:44:01Z</time>
      </trkpt>
      <trkpt lat="45.67422" lon="5.95768">
        <ele>781.20874</ele>
        <time>2011-05-22T08:44:03Z</time>
      </trkpt>
      <trkpt lat="45.67414" lon="5.95781">
        <ele>781.20874</ele>
        <time>2011-05-22T08:44:07Z</time>
      </trkpt>
      <trkpt lat="45.67366" lon="5.95691">
        <ele>773.518066</ele>
        <time>2011-05-22T08:44:26Z</time>
      </trkpt>
      <trkpt lat="45.67356" lon="5.95631">
        <ele>771.114746</ele>
        <time>2011-05-22T08:44:42Z</time>
      </trkpt>
      <trkpt lat="45.67371" lon="5.95528">
        <ele>771.114746</ele>
        <time>2011-05-22T08:44:49Z</time>
      </trkpt>
      <trkpt lat="45.67457" lon="5.95601">
        <ele>637.972168</ele>
        <time>2011-05-22T08:45:03Z</time>
      </trkpt>
      <trkpt lat="45.67469" lon="5.9559">
        <ele>637.972168</ele>
        <time>2011-05-22T08:45:08Z</time>
      </trkpt>
      <trkpt lat="45.67519" lon="5.95603">
        <ele>637.972168</ele>
        <time>2011-05-22T08:45:10Z</time>
      </trkpt>
      <trkpt lat="45.67609" lon="5.95693">
        <ele>637.972168</ele>
        <time>2011-05-22T08:45:26Z</time>
      </trkpt>
      <trkpt lat="45.67613" lon="5.95532">
        <ele>637.010742</ele>
        <time>2011-05-22T08:45:32Z</time>
      </trkpt>
      <trkpt lat="45.67613" lon="5.95513">
        <ele>637.010742</ele>
        <time>2011-05-22T08:45:34Z</time>
      </trkpt>
      <trkpt lat="45.67611" lon="5.95485">
        <ele>637.972168</ele>
        <time>2011-05-22T08:45:41Z</time>
      </trkpt>
      <trkpt lat="45.67613" lon="5.95489">
        <ele>638.452881</ele>
        <time>2011-05-22T08:45:43Z</time>
      </trkpt>
      <trkpt lat="45.6759" lon="5.95474">
        <ele>634.607422</ele>
        <time>2011-05-22T08:45:56Z</time>
      </trkpt>
      <trkpt lat="45.67549" lon="5.95468">
        <ele>639.414063</ele>
        <time>2011-05-22T08:46:12Z</time>
      </trkpt>
      <trkpt lat="45.67499" lon="5.95442">
        <ele>640.375488</ele>
        <time>2011-05-22T08:46:31Z</time>
      </trkpt>
      <trkpt lat="45.6748" lon="5.95431">
        <ele>640.375488</ele>
        <time>2011-05-22T08:46:38Z</time>
      </trkpt>
      <trkpt lat="45.6748" lon="5.95412">
        <ele>639.894775</ele>
        <time>2011-05-22T08:46:41Z</time>
      </trkpt>
      <trkpt lat="45.6748" lon="5.95395">
        <ele>639.894775</ele>
        <time>2011-05-22T08:46:43Z</time>
      </trkpt>
      <trkpt lat="45.67457" lon="5.95367">
        <ele>639.894775</ele>
        <time>2011-05-22T08:46:49Z</time>
      </trkpt>
      <trkpt lat="45.67403" lon="5.95335">
        <ele>641.33667</ele>
        <time>2011-05-22T08:47:07Z</time>
      </trkpt>
      <trkpt lat="45.67356" lon="5.95313">
        <ele>639.414063</ele>
        <time>2011-05-22T08:47:28Z</time>
      </trkpt>
      <trkpt lat="45.67308" lon="5.95309">
        <ele>643.259277</ele>
        <time>2011-05-22T08:47:49Z</time>
      </trkpt>
      <trkpt lat="45.67255" lon="5.95324">
        <ele>649.988525</ele>
        <time>2011-05-22T08:48:12Z</time>
      </trkpt>
      <trkpt lat="45.67195" lon="5.95332">
        <ele>652.872559</ele>
        <time>2011-05-22T08:48:36Z</time>
      </trkpt>
      <trkpt lat="45.67169" lon="5.95335">
        <ele>650.469238</ele>
        <time>2011-05-22T08:48:42Z</time>
      </trkpt>
      <trkpt lat="45.6713" lon="5.95307">
        <ele>649.0271</ele>
        <time>2011-05-22T08:48:50Z</time>
      </trkpt>
      <trkpt lat="45.67111" lon="5.95309">
        <ele>649.0271</ele>
        <time>2011-05-22T08:48:53Z</time>
      </trkpt>
      <trkpt lat="45.67098" lon="5.95317">
        <ele>648.546387</ele>
        <time>2011-05-22T08:48:55Z</time>
      </trkpt>
      <trkpt lat="45.67072" lon="5.95332">
        <ele>647.585205</ele>
        <time>2011-05-22T08:49:00Z</time>
      </trkpt>
      <trkpt lat="45.67055" lon="5.95343">
        <ele>647.104492</ele>
        <time>2011-05-22T08:49:04Z</time>
      </trkpt>
      <trkpt lat="45.67025" lon="5.95345">
        <ele>644.701172</ele>
        <time>2011-05-22T08:49:09Z</time>
      </trkpt>
      <trkpt lat="45.67004" lon="5.95335">
        <ele>644.701172</ele>
        <time>2011-05-22T08:49:12Z</time>
      </trkpt>
      <trkpt lat="45.66991" lon="5.95332">
        <ele>644.701172</ele>
        <time>2011-05-22T08:49:14Z</time>
      </trkpt>
      <trkpt lat="45.66976" lon="5.95343">
        <ele>639.414063</ele>
        <time>2011-05-22T08:49:18Z</time>
      </trkpt>
      <trkpt lat="45.6695" lon="5.9535">
        <ele>637.491455</ele>
        <time>2011-05-22T08:49:26Z</time>
      </trkpt>
      <trkpt lat="45.66929" lon="5.95345">
        <ele>637.491455</ele>
        <time>2011-05-22T08:49:31Z</time>
      </trkpt>
      <trkpt lat="45.66901" lon="5.9533">
        <ele>632.204102</ele>
        <time>2011-05-22T08:49:42Z</time>
      </trkpt>
      <trkpt lat="45.66892" lon="5.95328">
        <ele>630.762207</ele>
        <time>2011-05-22T08:49:45Z</time>
      </trkpt>
      <trkpt lat="45.66828" lon="5.95328">
        <ele>623.071777</ele>
        <time>2011-05-22T08:49:55Z</time>
      </trkpt>
      <trkpt lat="45.66761" lon="5.95328">
        <ele>620.187744</ele>
        <time>2011-05-22T08:50:03Z</time>
      </trkpt>
      <trkpt lat="45.66703" lon="5.95285">
        <ele>618.745605</ele>
        <time>2011-05-22T08:50:12Z</time>
      </trkpt>
      <trkpt lat="45.66693" lon="5.95272">
        <ele>618.264893</ele>
        <time>2011-05-22T08:50:14Z</time>
      </trkpt>
      <trkpt lat="45.66654" lon="5.95212">
        <ele>615.381104</ele>
        <time>2011-05-22T08:50:22Z</time>
      </trkpt>
      <trkpt lat="45.66633" lon="5.95221">
        <ele>612.977783</ele>
        <time>2011-05-22T08:50:27Z</time>
      </trkpt>
      <trkpt lat="45.66615" lon="5.95223">
        <ele>606.248535</ele>
        <time>2011-05-22T08:50:34Z</time>
      </trkpt>
      <trkpt lat="45.66609" lon="5.95137">
        <ele>595.674072</ele>
        <time>2011-05-22T08:50:44Z</time>
      </trkpt>
      <trkpt lat="45.66579" lon="5.95088">
        <ele>587.983398</ele>
        <time>2011-05-22T08:50:51Z</time>
      </trkpt>
      <trkpt lat="45.6656" lon="5.95053">
        <ele>586.060791</ele>
        <time>2011-05-22T08:50:55Z</time>
      </trkpt>
      <trkpt lat="45.6654" lon="5.95062">
        <ele>582.696289</ele>
        <time>2011-05-22T08:51:00Z</time>
      </trkpt>
      <trkpt lat="45.66523" lon="5.9506">
        <ele>581.734863</ele>
        <time>2011-05-22T08:51:03Z</time>
      </trkpt>
      <trkpt lat="45.66508" lon="5.95041">
        <ele>581.254395</ele>
        <time>2011-05-22T08:51:06Z</time>
      </trkpt>
      <trkpt lat="45.665" lon="5.95026">
        <ele>581.254395</ele>
        <time>2011-05-22T08:51:08Z</time>
      </trkpt>
      <trkpt lat="45.66478" lon="5.95028">
        <ele>580.292969</ele>
        <time>2011-05-22T08:51:11Z</time>
      </trkpt>
      <trkpt lat="45.66465" lon="5.95015">
        <ele>576.447754</ele>
        <time>2011-05-22T08:51:16Z</time>
      </trkpt>
      <trkpt lat="45.66463" lon="5.95">
        <ele>571.640869</ele>
        <time>2011-05-22T08:51:22Z</time>
      </trkpt>
      <trkpt lat="45.66457" lon="5.95004">
        <ele>571.1604</ele>
        <time>2011-05-22T08:51:24Z</time>
      </trkpt>
      <trkpt lat="45.66394" lon="5.95023">
        <ele>566.834473</ele>
        <time>2011-05-22T08:51:41Z</time>
      </trkpt>
      <trkpt lat="45.66343" lon="5.95021">
        <ele>563.469971</ele>
        <time>2011-05-22T08:51:54Z</time>
      </trkpt>
      <trkpt lat="45.66285" lon="5.95036">
        <ele>559.624756</ele>
        <time>2011-05-22T08:52:11Z</time>
      </trkpt>
      <trkpt lat="45.66285" lon="5.95036">
        <ele>560.105225</ele>
        <time>2011-05-22T08:52:14Z</time>
      </trkpt>
      <trkpt lat="45.66266" lon="5.95066">
        <ele>561.06665</ele>
        <time>2011-05-22T08:52:27Z</time>
      </trkpt>
      <trkpt lat="45.66223" lon="5.95073">
        <ele>556.740723</ele>
        <time>2011-05-22T08:52:41Z</time>
      </trkpt>
      <trkpt lat="45.66186" lon="5.95079">
        <ele>555.298584</ele>
        <time>2011-05-22T08:52:50Z</time>
      </trkpt>
      <trkpt lat="45.66152" lon="5.95036">
        <ele>555.779297</ele>
        <time>2011-05-22T08:53:03Z</time>
      </trkpt>
      <trkpt lat="45.66139" lon="5.9503">
        <ele>555.779297</ele>
        <time>2011-05-22T08:53:06Z</time>
      </trkpt>
      <trkpt lat="45.66094" lon="5.95019">
        <ele>556.26001</ele>
        <time>2011-05-22T08:53:15Z</time>
      </trkpt>
      <trkpt lat="45.65995" lon="5.95047">
        <ele>553.856689</ele>
        <time>2011-05-22T08:53:35Z</time>
      </trkpt>
      <trkpt lat="45.65959" lon="5.95069">
        <ele>557.702148</ele>
        <time>2011-05-22T08:53:48Z</time>
      </trkpt>
      <trkpt lat="45.65922" lon="5.95099">
        <ele>561.547363</ele>
        <time>2011-05-22T08:54:08Z</time>
      </trkpt>
      <trkpt lat="45.65886" lon="5.95116">
        <ele>563.950439</ele>
        <time>2011-05-22T08:54:28Z</time>
      </trkpt>
      <trkpt lat="45.65836" lon="5.95122">
        <ele>563.950439</ele>
        <time>2011-05-22T08:54:46Z</time>
      </trkpt>
      <trkpt lat="45.65809" lon="5.95144">
        <ele>564.911865</ele>
        <time>2011-05-22T08:55:01Z</time>
      </trkpt>
      <trkpt lat="45.65781" lon="5.95167">
        <ele>572.602539</ele>
        <time>2011-05-22T08:55:23Z</time>
      </trkpt>
      <trkpt lat="45.65755" lon="5.95189">
        <ele>576.447754</ele>
        <time>2011-05-22T08:55:44Z</time>
      </trkpt>
      <trkpt lat="45.65731" lon="5.95204">
        <ele>580.292969</ele>
        <time>2011-05-22T08:56:02Z</time>
      </trkpt>
      <trkpt lat="45.65727" lon="5.95214">
        <ele>582.696289</ele>
        <time>2011-05-22T08:56:11Z</time>
      </trkpt>
      <trkpt lat="45.65731" lon="5.95214">
        <ele>583.657471</ele>
        <time>2011-05-22T08:56:15Z</time>
      </trkpt>
      <trkpt lat="45.65733" lon="5.95219">
        <ele>583.657471</ele>
        <time>2011-05-22T08:56:20Z</time>
      </trkpt>
      <trkpt lat="45.65738" lon="5.95238">
        <ele>584.618896</ele>
        <time>2011-05-22T08:56:42Z</time>
      </trkpt>
      <trkpt lat="45.65706" lon="5.9524">
        <ele>588.945068</ele>
        <time>2011-05-22T08:57:04Z</time>
      </trkpt>
      <trkpt lat="45.65673" lon="5.95262">
        <ele>591.348145</ele>
        <time>2011-05-22T08:57:28Z</time>
      </trkpt>
      <trkpt lat="45.65643" lon="5.95283">
        <ele>595.193359</ele>
        <time>2011-05-22T08:57:51Z</time>
      </trkpt>
      <trkpt lat="45.65613" lon="5.95294">
        <ele>598.557861</ele>
        <time>2011-05-22T08:58:08Z</time>
      </trkpt>
      <trkpt lat="45.65603" lon="5.95296">
        <ele>606.729248</ele>
        <time>2011-05-22T08:58:21Z</time>
      </trkpt>
      <trkpt lat="45.65598" lon="5.95298">
        <ele>605.768066</ele>
        <time>2011-05-22T08:58:45Z</time>
      </trkpt>
      <trkpt lat="45.65564" lon="5.9527">
        <ele>605.768066</ele>
        <time>2011-05-22T08:59:05Z</time>
      </trkpt>
      <trkpt lat="45.65532" lon="5.95281">
        <ele>610.09375</ele>
        <time>2011-05-22T08:59:24Z</time>
      </trkpt>
      <trkpt lat="45.65525" lon="5.953">
        <ele>614.419678</ele>
        <time>2011-05-22T08:59:45Z</time>
      </trkpt>
      <trkpt lat="45.65517" lon="5.95315">
        <ele>620.187744</ele>
        <time>2011-05-22T09:00:10Z</time>
      </trkpt>
      <trkpt lat="45.65515" lon="5.95309">
        <ele>639.414063</ele>
        <time>2011-05-22T09:01:03Z</time>
      </trkpt>
      <trkpt lat="45.65502" lon="5.95313">
        <ele>637.491455</ele>
        <time>2011-05-22T09:01:11Z</time>
      </trkpt>
      <trkpt lat="45.65482" lon="5.9529">
        <ele>637.491455</ele>
        <time>2011-05-22T09:01:16Z</time>
      </trkpt>
      <trkpt lat="45.65452" lon="5.95298">
        <ele>635.568604</ele>
        <time>2011-05-22T09:01:29Z</time>
      </trkpt>
      <trkpt lat="45.65424" lon="5.95287">
        <ele>634.126709</ele>
        <time>2011-05-22T09:01:45Z</time>
      </trkpt>
      <trkpt lat="45.65394" lon="5.95277">
        <ele>628.358887</ele>
        <time>2011-05-22T09:02:01Z</time>
      </trkpt>
      <trkpt lat="45.65384" lon="5.95274">
        <ele>627.397705</ele>
        <time>2011-05-22T09:02:09Z</time>
      </trkpt>
      <trkpt lat="45.65362" lon="5.95264">
        <ele>624.513672</ele>
        <time>2011-05-22T09:02:17Z</time>
      </trkpt>
      <trkpt lat="45.65349" lon="5.95259">
        <ele>618.745605</ele>
        <time>2011-05-22T09:02:36Z</time>
      </trkpt>
      <trkpt lat="45.65349" lon="5.95253">
        <ele>617.78418</ele>
        <time>2011-05-22T09:02:44Z</time>
      </trkpt>
      <trkpt lat="45.65328" lon="5.95223">
        <ele>620.668457</ele>
        <time>2011-05-22T09:03:05Z</time>
      </trkpt>
      <trkpt lat="45.65317" lon="5.95219">
        <ele>620.187744</ele>
        <time>2011-05-22T09:03:12Z</time>
      </trkpt>
      <trkpt lat="45.65298" lon="5.95225">
        <ele>618.264893</ele>
        <time>2011-05-22T09:03:19Z</time>
      </trkpt>
      <trkpt lat="45.65253" lon="5.95217">
        <ele>614.419678</ele>
        <time>2011-05-22T09:03:32Z</time>
      </trkpt>
      <trkpt lat="45.65227" lon="5.95206">
        <ele>611.535889</ele>
        <time>2011-05-22T09:03:38Z</time>
      </trkpt>
      <trkpt lat="45.65158" lon="5.95189">
        <ele>609.613281</ele>
        <time>2011-05-22T09:03:54Z</time>
      </trkpt>
      <trkpt lat="45.65139" lon="5.9518">
        <ele>609.132568</ele>
        <time>2011-05-22T09:03:59Z</time>
      </trkpt>
      <trkpt lat="45.65126" lon="5.95184">
        <ele>609.132568</ele>
        <time>2011-05-22T09:04:02Z</time>
      </trkpt>
      <trkpt lat="45.65113" lon="5.95174">
        <ele>607.690674</ele>
        <time>2011-05-22T09:04:07Z</time>
      </trkpt>
      <trkpt lat="45.65103" lon="5.95178">
        <ele>608.171387</ele>
        <time>2011-05-22T09:04:13Z</time>
      </trkpt>
      <trkpt lat="45.65088" lon="5.95195">
        <ele>603.845215</ele>
        <time>2011-05-22T09:04:27Z</time>
      </trkpt>
      <trkpt lat="45.65079" lon="5.95202">
        <ele>603.845215</ele>
        <time>2011-05-22T09:04:32Z</time>
      </trkpt>
      <trkpt lat="45.65073" lon="5.95204">
        <ele>603.845215</ele>
        <time>2011-05-22T09:04:34Z</time>
      </trkpt>
      <trkpt lat="45.6506" lon="5.95208">
        <ele>603.845215</ele>
        <time>2011-05-22T09:04:38Z</time>
      </trkpt>
      <trkpt lat="45.65025" lon="5.95232">
        <ele>599.038574</ele>
        <time>2011-05-22T09:04:53Z</time>
      </trkpt>
      <trkpt lat="45.65" lon="5.95214">
        <ele>597.59668</ele>
        <time>2011-05-22T09:05:08Z</time>
      </trkpt>
      <trkpt lat="45.64995" lon="5.95182">
        <ele>596.154785</ele>
        <time>2011-05-22T09:05:17Z</time>
      </trkpt>
      <trkpt lat="45.64991" lon="5.95144">
        <ele>596.635498</ele>
        <time>2011-05-22T09:05:27Z</time>
      </trkpt>
      <trkpt lat="45.64995" lon="5.95109">
        <ele>592.790283</ele>
        <time>2011-05-22T09:05:50Z</time>
      </trkpt>
      <trkpt lat="45.6501" lon="5.95021">
        <ele>588.464355</ele>
        <time>2011-05-22T09:06:12Z</time>
      </trkpt>
      <trkpt lat="45.65015" lon="5.95006">
        <ele>588.464355</ele>
        <time>2011-05-22T09:06:15Z</time>
      </trkpt>
      <trkpt lat="45.65034" lon="5.94858">
        <ele>588.464355</ele>
        <time>2011-05-22T09:06:19Z</time>
      </trkpt>
      <trkpt lat="45.65049" lon="5.94779">
        <ele>578.370361</ele>
        <time>2011-05-22T09:06:29Z</time>
      </trkpt>
      <trkpt lat="45.65028" lon="5.94725">
        <ele>577.889648</ele>
        <time>2011-05-22T09:06:35Z</time>
      </trkpt>
      <trkpt lat="45.65017" lon="5.94693">
        <ele>577.889648</ele>
        <time>2011-05-22T09:06:40Z</time>
      </trkpt>
      <trkpt lat="45.65015" lon="5.94646">
        <ele>570.198975</ele>
        <time>2011-05-22T09:06:49Z</time>
      </trkpt>
      <trkpt lat="45.65021" lon="5.94637">
        <ele>562.989258</ele>
        <time>2011-05-22T09:06:54Z</time>
      </trkpt>
      <trkpt lat="45.65034" lon="5.94626">
        <ele>560.105225</ele>
        <time>2011-05-22T09:06:58Z</time>
      </trkpt>
      <trkpt lat="45.65038" lon="5.94614">
        <ele>559.624756</ele>
        <time>2011-05-22T09:07:00Z</time>
      </trkpt>
      <trkpt lat="45.65053" lon="5.94519">
        <ele>554.337402</ele>
        <time>2011-05-22T09:07:10Z</time>
      </trkpt>
      <trkpt lat="45.65055" lon="5.945">
        <ele>553.856689</ele>
        <time>2011-05-22T09:07:13Z</time>
      </trkpt>
      <trkpt lat="45.6506" lon="5.94483">
        <ele>553.856689</ele>
        <time>2011-05-22T09:07:15Z</time>
      </trkpt>
      <trkpt lat="45.65062" lon="5.94457">
        <ele>550.492188</ele>
        <time>2011-05-22T09:07:19Z</time>
      </trkpt>
      <trkpt lat="45.65081" lon="5.94363">
        <ele>425.040161</ele>
        <time>2011-05-22T09:07:30Z</time>
      </trkpt>
      <trkpt lat="45.65092" lon="5.94335">
        <ele>428.404663</ele>
        <time>2011-05-22T09:07:34Z</time>
      </trkpt>
      <trkpt lat="45.65098" lon="5.94309">
        <ele>427.92395</ele>
        <time>2011-05-22T09:07:38Z</time>
      </trkpt>
      <trkpt lat="45.65105" lon="5.94283">
        <ele>425.520752</ele>
        <time>2011-05-22T09:07:41Z</time>
      </trkpt>
      <trkpt lat="45.65126" lon="5.94174">
        <ele>416.868896</ele>
        <time>2011-05-22T09:07:51Z</time>
      </trkpt>
      <trkpt lat="45.65141" lon="5.94084">
        <ele>411.581665</ele>
        <time>2011-05-22T09:07:59Z</time>
      </trkpt>
      <trkpt lat="45.65152" lon="5.94045">
        <ele>410.139648</ele>
        <time>2011-05-22T09:08:02Z</time>
      </trkpt>
      <trkpt lat="45.65195" lon="5.93843">
        <ele>406.774902</ele>
        <time>2011-05-22T09:08:14Z</time>
      </trkpt>
      <trkpt lat="45.65199" lon="5.93815">
        <ele>406.294312</ele>
        <time>2011-05-22T09:08:16Z</time>
      </trkpt>
      <trkpt lat="45.65195" lon="5.93777">
        <ele>401.00708</ele>
        <time>2011-05-22T09:08:22Z</time>
      </trkpt>
      <trkpt lat="45.65161" lon="5.93751">
        <ele>394.277954</ele>
        <time>2011-05-22T09:08:29Z</time>
      </trkpt>
      <trkpt lat="45.65141" lon="5.93727">
        <ele>389.951904</ele>
        <time>2011-05-22T09:08:34Z</time>
      </trkpt>
      <trkpt lat="45.65161" lon="5.93562">
        <ele>378.416138</ele>
        <time>2011-05-22T09:08:48Z</time>
      </trkpt>
      <trkpt lat="45.65167" lon="5.93509">
        <ele>375.051514</ele>
        <time>2011-05-22T09:08:52Z</time>
      </trkpt>
      <trkpt lat="45.65167" lon="5.93483">
        <ele>374.090088</ele>
        <time>2011-05-22T09:08:55Z</time>
      </trkpt>
      <trkpt lat="45.6518" lon="5.93421">
        <ele>373.609497</ele>
        <time>2011-05-22T09:09:02Z</time>
      </trkpt>
      <trkpt lat="45.6518" lon="5.93382">
        <ele>373.609497</ele>
        <time>2011-05-22T09:09:06Z</time>
      </trkpt>
      <trkpt lat="45.65178" lon="5.93343">
        <ele>371.68689</ele>
        <time>2011-05-22T09:09:10Z</time>
      </trkpt>
      <trkpt lat="45.65184" lon="5.93324">
        <ele>371.68689</ele>
        <time>2011-05-22T09:09:12Z</time>
      </trkpt>
      <trkpt lat="45.6521" lon="5.93163">
        <ele>368.322266</ele>
        <time>2011-05-22T09:09:25Z</time>
      </trkpt>
      <trkpt lat="45.65212" lon="5.93137">
        <ele>367.841553</ele>
        <time>2011-05-22T09:09:27Z</time>
      </trkpt>
      <trkpt lat="45.65218" lon="5.93116">
        <ele>366.399536</ele>
        <time>2011-05-22T09:09:29Z</time>
      </trkpt>
      <trkpt lat="45.65223" lon="5.93094">
        <ele>365.918945</ele>
        <time>2011-05-22T09:09:31Z</time>
      </trkpt>
      <trkpt lat="45.65234" lon="5.93077">
        <ele>365.918945</ele>
        <time>2011-05-22T09:09:35Z</time>
      </trkpt>
      <trkpt lat="45.65272" lon="5.93086">
        <ele>356.786377</ele>
        <time>2011-05-22T09:09:46Z</time>
      </trkpt>
      <trkpt lat="45.65328" lon="5.93097">
        <ele>341.885986</ele>
        <time>2011-05-22T09:10:03Z</time>
      </trkpt>
      <trkpt lat="45.65373" lon="5.93099">
        <ele>334.676147</ele>
        <time>2011-05-22T09:10:16Z</time>
      </trkpt>
      <trkpt lat="45.65386" lon="5.93054">
        <ele>331.311523</ele>
        <time>2011-05-22T09:10:25Z</time>
      </trkpt>
      <trkpt lat="45.65388" lon="5.93047">
        <ele>331.311523</ele>
        <time>2011-05-22T09:10:26Z</time>
      </trkpt>
      <trkpt lat="45.65403" lon="5.93021">
        <ele>329.869507</ele>
        <time>2011-05-22T09:10:30Z</time>
      </trkpt>
      <trkpt lat="45.65452" lon="5.92998">
        <ele>324.582275</ele>
        <time>2011-05-22T09:10:42Z</time>
      </trkpt>
      <trkpt lat="45.65487" lon="5.92994">
        <ele>321.698364</ele>
        <time>2011-05-22T09:10:51Z</time>
      </trkpt>
      <trkpt lat="45.65504" lon="5.92925">
        <ele>318.814331</ele>
        <time>2011-05-22T09:11:01Z</time>
      </trkpt>
      <trkpt lat="45.65517" lon="5.92873">
        <ele>316.891724</ele>
        <time>2011-05-22T09:11:08Z</time>
      </trkpt>
      <trkpt lat="45.65508" lon="5.92796">
        <ele>315.449829</ele>
        <time>2011-05-22T09:11:19Z</time>
      </trkpt>
      <trkpt lat="45.6553" lon="5.92676">
        <ele>315.449829</ele>
        <time>2011-05-22T09:11:31Z</time>
      </trkpt>
      <trkpt lat="45.65525" lon="5.92661">
        <ele>313.527222</ele>
        <time>2011-05-22T09:11:35Z</time>
      </trkpt>
      <trkpt lat="45.65519" lon="5.92659">
        <ele>312.565796</ele>
        <time>2011-05-22T09:11:37Z</time>
      </trkpt>
      <trkpt lat="45.65465" lon="5.92642">
        <ele>307.759277</ele>
        <time>2011-05-22T09:11:48Z</time>
      </trkpt>
      <trkpt lat="45.65435" lon="5.92631">
        <ele>305.355957</ele>
        <time>2011-05-22T09:11:55Z</time>
      </trkpt>
      <trkpt lat="45.65345" lon="5.92603">
        <ele>304.394653</ele>
        <time>2011-05-22T09:12:18Z</time>
      </trkpt>
      <trkpt lat="45.65274" lon="5.92614">
        <ele>300.068726</ele>
        <time>2011-05-22T09:12:31Z</time>
      </trkpt>
      <trkpt lat="45.65216" lon="5.92622">
        <ele>299.588013</ele>
        <time>2011-05-22T09:12:41Z</time>
      </trkpt>
      <trkpt lat="45.65188" lon="5.92631">
        <ele>298.626709</ele>
        <time>2011-05-22T09:12:47Z</time>
      </trkpt>
      <trkpt lat="45.65146" lon="5.92627">
        <ele>299.1073</ele>
        <time>2011-05-22T09:12:57Z</time>
      </trkpt>
      <trkpt lat="45.65133" lon="5.92618">
        <ele>299.1073</ele>
        <time>2011-05-22T09:13:00Z</time>
      </trkpt>
      <trkpt lat="45.651" lon="5.92579">
        <ele>298.626709</ele>
        <time>2011-05-22T09:13:09Z</time>
      </trkpt>
      <trkpt lat="45.65053" lon="5.92577">
        <ele>298.626709</ele>
        <time>2011-05-22T09:13:20Z</time>
      </trkpt>
      <trkpt lat="45.65043" lon="5.92586">
        <ele>298.146118</ele>
        <time>2011-05-22T09:13:23Z</time>
      </trkpt>
      <trkpt lat="45.6501" lon="5.92642">
        <ele>301.029907</ele>
        <time>2011-05-22T09:13:37Z</time>
      </trkpt>
      <trkpt lat="45.64972" lon="5.92715">
        <ele>303.433228</ele>
        <time>2011-05-22T09:13:57Z</time>
      </trkpt>
      <trkpt lat="45.64935" lon="5.92745">
        <ele>307.278564</ele>
        <time>2011-05-22T09:14:13Z</time>
      </trkpt>
      <trkpt lat="45.64871" lon="5.92745">
        <ele>306.317261</ele>
        <time>2011-05-22T09:14:33Z</time>
      </trkpt>
      <trkpt lat="45.64787" lon="5.92736">
        <ele>307.759277</ele>
        <time>2011-05-22T09:14:54Z</time>
      </trkpt>
      <trkpt lat="45.64719" lon="5.9274">
        <ele>308.239868</ele>
        <time>2011-05-22T09:15:10Z</time>
      </trkpt>
      <trkpt lat="45.64622" lon="5.9274">
        <ele>309.201172</ele>
        <time>2011-05-22T09:15:32Z</time>
      </trkpt>
      <trkpt lat="45.64585" lon="5.92742">
        <ele>309.681885</ele>
        <time>2011-05-22T09:15:41Z</time>
      </trkpt>
      <trkpt lat="45.64585" lon="5.92723">
        <ele>308.720459</ele>
        <time>2011-05-22T09:15:45Z</time>
      </trkpt>
      <trkpt lat="45.64588" lon="5.92687">
        <ele>307.759277</ele>
        <time>2011-05-22T09:15:50Z</time>
      </trkpt>
      <trkpt lat="45.64577" lon="5.92532">
        <ele>301.51062</ele>
        <time>2011-05-22T09:16:06Z</time>
      </trkpt>
      <trkpt lat="45.64575" lon="5.92427">
        <ele>299.588013</ele>
        <time>2011-05-22T09:16:15Z</time>
      </trkpt>
      <trkpt lat="45.6459" lon="5.9227">
        <ele>296.223511</ele>
        <time>2011-05-22T09:16:30Z</time>
      </trkpt>
      <trkpt lat="45.64592" lon="5.92253">
        <ele>295.742676</ele>
        <time>2011-05-22T09:16:32Z</time>
      </trkpt>
      <trkpt lat="45.6459" lon="5.9223">
        <ele>295.742676</ele>
        <time>2011-05-22T09:16:35Z</time>
      </trkpt>
      <trkpt lat="45.64585" lon="5.92206">
        <ele>295.261963</ele>
        <time>2011-05-22T09:16:38Z</time>
      </trkpt>
      <trkpt lat="45.64573" lon="5.92176">
        <ele>293.820068</ele>
        <time>2011-05-22T09:16:42Z</time>
      </trkpt>
      <trkpt lat="45.6454" lon="5.92163">
        <ele>290.936157</ele>
        <time>2011-05-22T09:16:47Z</time>
      </trkpt>
      <trkpt lat="45.6439" lon="5.922">
        <ele>285.168213</ele>
        <time>2011-05-22T09:17:06Z</time>
      </trkpt>
      <trkpt lat="45.64322" lon="5.92206">
        <ele>285.648804</ele>
        <time>2011-05-22T09:17:19Z</time>
      </trkpt>
      <trkpt lat="45.64277" lon="5.92228">
        <ele>287.09082</ele>
        <time>2011-05-22T09:17:33Z</time>
      </trkpt>
      <trkpt lat="45.64274" lon="5.92273">
        <ele>290.455566</ele>
        <time>2011-05-22T09:17:45Z</time>
      </trkpt>
      <trkpt lat="45.6427" lon="5.92328">
        <ele>294.781372</ele>
        <time>2011-05-22T09:18:01Z</time>
      </trkpt>
      <trkpt lat="45.64264" lon="5.92328">
        <ele>294.781372</ele>
        <time>2011-05-22T09:18:06Z</time>
      </trkpt>
      <trkpt lat="45.64219" lon="5.92283">
        <ele>292.378174</ele>
        <time>2011-05-22T09:18:19Z</time>
      </trkpt>
      <trkpt lat="45.64199" lon="5.92262">
        <ele>291.897461</ele>
        <time>2011-05-22T09:18:23Z</time>
      </trkpt>
      <trkpt lat="45.64152" lon="5.92215">
        <ele>290.936157</ele>
        <time>2011-05-22T09:18:33Z</time>
      </trkpt>
      <trkpt lat="45.64109" lon="5.92217">
        <ele>289.01355</ele>
        <time>2011-05-22T09:18:47Z</time>
      </trkpt>
      <trkpt lat="45.64053" lon="5.92221">
        <ele>289.494141</ele>
        <time>2011-05-22T09:19:09Z</time>
      </trkpt>
      <trkpt lat="45.64008" lon="5.92217">
        <ele>292.858765</ele>
        <time>2011-05-22T09:19:23Z</time>
      </trkpt>
      <trkpt lat="45.63974" lon="5.9218">
        <ele>292.378174</ele>
        <time>2011-05-22T09:19:30Z</time>
      </trkpt>
      <trkpt lat="45.63946" lon="5.92176">
        <ele>291.897461</ele>
        <time>2011-05-22T09:19:34Z</time>
      </trkpt>
      <trkpt lat="45.63882" lon="5.922">
        <ele>294.300781</ele>
        <time>2011-05-22T09:19:47Z</time>
      </trkpt>
      <trkpt lat="45.63828" lon="5.92217">
        <ele>295.261963</ele>
        <time>2011-05-22T09:20:00Z</time>
      </trkpt>
      <trkpt lat="45.63774" lon="5.9221">
        <ele>295.742676</ele>
        <time>2011-05-22T09:20:12Z</time>
      </trkpt>
      <trkpt lat="45.63764" lon="5.92243">
        <ele>295.742676</ele>
        <time>2011-05-22T09:20:18Z</time>
      </trkpt>
      <trkpt lat="45.6377" lon="5.92354">
        <ele>294.781372</ele>
        <time>2011-05-22T09:20:34Z</time>
      </trkpt>
      <trkpt lat="45.63772" lon="5.92363">
        <ele>294.300781</ele>
        <time>2011-05-22T09:20:35Z</time>
      </trkpt>
      <trkpt lat="45.63779" lon="5.92382">
        <ele>294.300781</ele>
        <time>2011-05-22T09:20:38Z</time>
      </trkpt>
      <trkpt lat="45.63807" lon="5.92442">
        <ele>294.781372</ele>
        <time>2011-05-22T09:20:49Z</time>
      </trkpt>
      <trkpt lat="45.63815" lon="5.92476">
        <ele>294.781372</ele>
        <time>2011-05-22T09:20:55Z</time>
      </trkpt>
      <trkpt lat="45.63817" lon="5.92487">
        <ele>294.781372</ele>
        <time>2011-05-22T09:20:57Z</time>
      </trkpt>
      <trkpt lat="45.63856" lon="5.92631">
        <ele>296.223511</ele>
        <time>2011-05-22T09:21:20Z</time>
      </trkpt>
      <trkpt lat="45.63895" lon="5.92749">
        <ele>298.146118</ele>
        <time>2011-05-22T09:21:40Z</time>
      </trkpt>
      <trkpt lat="45.6394" lon="5.92839">
        <ele>299.588013</ele>
        <time>2011-05-22T09:21:59Z</time>
      </trkpt>
      <trkpt lat="45.63944" lon="5.92869">
        <ele>302.471924</ele>
        <time>2011-05-22T09:22:05Z</time>
      </trkpt>
      <trkpt lat="45.63933" lon="5.92886">
        <ele>303.91394</ele>
        <time>2011-05-22T09:22:10Z</time>
      </trkpt>
      <trkpt lat="45.63892" lon="5.92936">
        <ele>305.83667</ele>
        <time>2011-05-22T09:22:27Z</time>
      </trkpt>
      <trkpt lat="45.63892" lon="5.92938">
        <ele>305.355957</ele>
        <time>2011-05-22T09:22:28Z</time>
      </trkpt>
      <trkpt lat="45.63875" lon="5.92931">
        <ele>304.394653</ele>
        <time>2011-05-22T09:22:36Z</time>
      </trkpt>
      <trkpt lat="45.63858" lon="5.92938">
        <ele>303.433228</ele>
        <time>2011-05-22T09:22:40Z</time>
      </trkpt>
      <trkpt lat="45.63802" lon="5.92974">
        <ele>301.991333</ele>
        <time>2011-05-22T09:22:52Z</time>
      </trkpt>
      <trkpt lat="45.63789" lon="5.92974">
        <ele>302.471924</ele>
        <time>2011-05-22T09:22:55Z</time>
      </trkpt>
      <trkpt lat="45.63781" lon="5.92966">
        <ele>301.51062</ele>
        <time>2011-05-22T09:22:58Z</time>
      </trkpt>
      <trkpt lat="45.63772" lon="5.92968">
        <ele>304.394653</ele>
        <time>2011-05-22T09:23:10Z</time>
      </trkpt>
      <trkpt lat="45.63774" lon="5.92974">
        <ele>305.83667</ele>
        <time>2011-05-22T09:23:49Z</time>
      </trkpt>
      <trkpt lat="45.63777" lon="5.92976">
        <ele>303.91394</ele>
        <time>2011-05-22T09:24:10Z</time>
      </trkpt>
      <trkpt lat="45.63774" lon="5.92985">
        <ele>302.471924</ele>
        <time>2011-05-22T09:25:19Z</time>
      </trkpt>
      <trkpt lat="45.6377" lon="5.92983">
        <ele>301.991333</ele>
        <time>2011-05-22T09:25:31Z</time>
      </trkpt>
      <trkpt lat="45.63749" lon="5.92994">
        <ele>301.51062</ele>
        <time>2011-05-22T09:25:45Z</time>
      </trkpt>
      <trkpt lat="45.63738" lon="5.93002">
        <ele>300.549316</ele>
        <time>2011-05-22T09:25:59Z</time>
      </trkpt>
      <trkpt lat="45.63738" lon="5.93002">
        <ele>302.471924</ele>
        <time>2011-05-22T09:26:11Z</time>
      </trkpt>
      <trkpt lat="45.63744" lon="5.92998">
        <ele>302.471924</ele>
        <time>2011-05-22T09:26:15Z</time>
      </trkpt>
      <trkpt lat="45.63764" lon="5.92981">
        <ele>301.51062</ele>
        <time>2011-05-22T09:26:33Z</time>
      </trkpt>
      <trkpt lat="45.63768" lon="5.92981">
        <ele>306.797852</ele>
        <time>2011-05-22T09:26:52Z</time>
      </trkpt>
      <trkpt lat="45.63768" lon="5.92974">
        <ele>309.201172</ele>
        <time>2011-05-22T09:28:01Z</time>
      </trkpt>
    </trkseg>
  </trk>
</gpx>